Observation data for Earth on 12/13/2019      Previous  Date       Current Mesonet Observations  Soil Data  Daily Summary Page  Observations in Plain Language
KEA1 130600Z 26008KT M00/M04 A2998 RMK A01 T10021042  RH  074%=      5-min Rain = 0
KEA1 130601Z 25008KT M00/M04 A2998 RMK A01 T10031042  RH  075%=      5-min Rain = 0
KEA1 130602Z 25007KT M00/M04 A2998 RMK A01 T10031042  RH  075%=      5-min Rain = 0
KEA1 130603Z 25008KT M00/M04 A2998 RMK A01 T10021041  RH  075%=      5-min Rain = 0
KEA1 130604Z 25008KT M00/M04 A2998 RMK A01 T10021041  RH  075%=      5-min Rain = 0
KEA1 130605Z 25008KT M00/M04 A2998 RMK A01 T10011041  RH  074%=      5-min Rain = 0
KEA1 130606Z 26008KT M00/M04 A2998 RMK A01 T10021042  RH  074%=      5-min Rain = 0
KEA1 130607Z 26008KT M00/M04 A2998 RMK A01 T10011042  RH  074%=      5-min Rain = 0
KEA1 130608Z 26008KT M00/M04 A2998 RMK A01 T10011042  RH  074%=      5-min Rain = 0
KEA1 130609Z 26008KT M00/M04 A2998 RMK A01 T10011042  RH  074%=      5-min Rain = 0
KEA1 130610Z 26007KT M00/M04 A2998 RMK A01 T10021043  RH  074%=      5-min Rain = 0
KEA1 130611Z 26008KT M00/M04 A2998 RMK A01 T10041044  RH  074%=      5-min Rain = 0
KEA1 130612Z 26008KT M01/M04 A2998 RMK A01 T10051044  RH  075%=      5-min Rain = 0
KEA1 130613Z 25008KT M01/M04 A2998 RMK A01 T10051043  RH  075%=      5-min Rain = 0
KEA1 130614Z 25008KT M01/M04 A2998 RMK A01 T10051042  RH  076%=      5-min Rain = 0
KEA1 130615Z 25008KT M00/M04 A2998 RMK A01 T10041042  RH  076%=      5-min Rain = 0
KEA1 130616Z 26008KT M00/M04 A2998 RMK A01 T10041042  RH  076%=      5-min Rain = 0
KEA1 130617Z 26008KT M00/M04 A2998 RMK A01 T10041042  RH  075%=      5-min Rain = 0
KEA1 130618Z 26007KT M00/M04 A2998 RMK A01 T10041042  RH  075%=      5-min Rain = 0
KEA1 130619Z 26007KT M01/M04 A2998 RMK A01 T10051042  RH  076%=      5-min Rain = 0
KEA1 130620Z 26007KT M01/M04 A2998 RMK A01 T10051043  RH  076%=      5-min Rain = 0
KEA1 130621Z 26008KT M01/M04 A2998 RMK A01 T10061044  RH  076%=      5-min Rain = 0
KEA1 130622Z 26008KT M01/M05 A2998 RMK A01 T10071045  RH  075%=      5-min Rain = 0
KEA1 130623Z 26009KT M01/M05 A2998 RMK A01 T10081046  RH  075%=      5-min Rain = 0
KEA1 130624Z 26009KT M01/M05 A2998 RMK A01 T10081046  RH  075%=      5-min Rain = 0
KEA1 130625Z 25009KT M01/M05 A2998 RMK A01 T10081046  RH  075%=      5-min Rain = 0
KEA1 130626Z 25009KT M01/M05 A2998 RMK A01 T10081046  RH  076%=      5-min Rain = 0
KEA1 130627Z 26009KT M01/M05 A2998 RMK A01 T10081045  RH  076%=      5-min Rain = 0
KEA1 130628Z 25009KT M01/M05 A2998 RMK A01 T10081045  RH  076%=      5-min Rain = 0
KEA1 130629Z 25009KT M01/M05 A2998 RMK A01 T10081045  RH  076%=      5-min Rain = 0
KEA1 130630Z 25010KT M01/M05 A2998 RMK A01 T10081046  RH  076%=      5-min Rain = 0
KEA1 130631Z 26010KT M01/M05 A2998 RMK A01 T10071046  RH  075%=      5-min Rain = 0
KEA1 130632Z 25010KT M01/M05 A2998 RMK A01 T10071046  RH  075%=      5-min Rain = 0
KEA1 130633Z 25010KT M01/M05 A2998 RMK A01 T10061046  RH  074%=      5-min Rain = 0
KEA1 130634Z 25010KT M01/M05 A2998 RMK A01 T10051046  RH  074%=      5-min Rain = 0
KEA1 130635Z 26010KT M00/M05 A2998 RMK A01 T10041045  RH  074%=      5-min Rain = 0
KEA1 130636Z 26010KT M00/M05 A2998 RMK A01 T10031045  RH  073%=      5-min Rain = 0
KEA1 130637Z 26010KT M00/M05 A2998 RMK A01 T10011045  RH  072%=      5-min Rain = 0
KEA1 130638Z 26010KT 00/M04 A2998 RMK A01 T00021044  RH  071%=      5-min Rain = 0
KEA1 130639Z 26010KT 01/M04 A2998 RMK A01 T00051043  RH  070%=      5-min Rain = 0
KEA1 130640Z 26011KT 01/M04 A2998 RMK A01 T00071044  RH  069%=      5-min Rain = 0
KEA1 130641Z 26011KT 01/M04 A2998 RMK A01 T00081044  RH  068%=      5-min Rain = 0
KEA1 130642Z 26010KT 01/M05 A2998 RMK A01 T00081045  RH  067%=      5-min Rain = 0
KEA1 130643Z 26010KT 01/M05 A2998 RMK A01 T00081046  RH  067%=      5-min Rain = 0
KEA1 130644Z 26011KT 01/M05 A2998 RMK A01 T00081046  RH  068%=      5-min Rain = 0
KEA1 130645Z 27010KT 01/M05 A2998 RMK A01 T00081045  RH  068%=      5-min Rain = 0
KEA1 130646Z 27010KT 01/M04 A2998 RMK A01 T00091044  RH  068%=      5-min Rain = 0
KEA1 130647Z 27011KT 01/M04 A2998 RMK A01 T00101044  RH  067%=      5-min Rain = 0
KEA1 130648Z 27010KT 01/M04 A2998 RMK A01 T00101044  RH  067%=      5-min Rain = 0
KEA1 130649Z 27010KT 01/M04 A2998 RMK A01 T00091044  RH  068%=      5-min Rain = 0
KEA1 130650Z 26010KT 01/M05 A2998 RMK A01 T00071045  RH  068%=      5-min Rain = 0
KEA1 130651Z 26010KT 01/M04 A2998 RMK A01 T00061044  RH  069%=      5-min Rain = 0
KEA1 130652Z 27010KT 01/M04 A2998 RMK A01 T00051044  RH  069%=      5-min Rain = 0
KEA1 130653Z 27010KT 01/M04 A2998 RMK A01 T00051044  RH  070%=      5-min Rain = 0
KEA1 130654Z 27010KT 01/M04 A2998 RMK A01 T00061044  RH  069%=      5-min Rain = 0
KEA1 130655Z 27010KT 01/M04 A2998 RMK A01 T00071043  RH  069%=      5-min Rain = 0
KEA1 130656Z 27010KT 01/M04 A2998 RMK A01 T00081043  RH  069%=      5-min Rain = 0
KEA1 130657Z 28009KT 01/M04 A2998 RMK A01 T00081042  RH  069%=      5-min Rain = 0
KEA1 130658Z 29009KT 01/M04 A2998 RMK A01 T00081041  RH  070%=      5-min Rain = 0
KEA1 130659Z 29008KT 01/M04 A2998 RMK A01 T00081041  RH  070%=      5-min Rain = 0
KEA1 130700Z 28008KT 01/M04 A2998 RMK A01 T00071041  RH  070%=      5-min Rain = 0
KEA1 130701Z 29008KT 01/M04 A2998 RMK A01 T00061041  RH  071%=      5-min Rain = 0
KEA1 130702Z 28008KT 01/M04 A2998 RMK A01 T00051041  RH  071%=      5-min Rain = 0
KEA1 130703Z 28009KT 01/M04 A2998 RMK A01 T00051041  RH  072%=      5-min Rain = 0
KEA1 130704Z 28009KT 01/M04 A2998 RMK A01 T00051040  RH  072%=      5-min Rain = 0
KEA1 130705Z 27008KT 01/M04 A2998 RMK A01 T00051040  RH  072%=      5-min Rain = 0
KEA1 130706Z 28008KT 01/M04 A2998 RMK A01 T00051041  RH  072%=      5-min Rain = 0
KEA1 130707Z 28008KT 01/M04 A2998 RMK A01 T00051041  RH  071%=      5-min Rain = 0
KEA1 130708Z 27008KT 01/M04 A2998 RMK A01 T00051041  RH  071%=      5-min Rain = 0
KEA1 130709Z 27008KT 01/M04 A2998 RMK A01 T00061041  RH  071%=      5-min Rain = 0
KEA1 130710Z 28008KT 01/M04 A2998 RMK A01 T00061040  RH  071%=      5-min Rain = 0
KEA1 130711Z 29007KT 01/M04 A2998 RMK A01 T00061040  RH  071%=      5-min Rain = 0
KEA1 130712Z 29006KT 01/M04 A2998 RMK A01 T00051041  RH  072%=      5-min Rain = 0
KEA1 130713Z 28007KT 00/M04 A2998 RMK A01 T00041040  RH  072%=      5-min Rain = 0
KEA1 130714Z 28007KT 00/M04 A2998 RMK A01 T00031040  RH  072%=      5-min Rain = 0
KEA1 130715Z 28006KT 00/M04 A2998 RMK A01 T00031040  RH  073%=      5-min Rain = 0
KEA1 130716Z 28006KT 00/M04 A2998 RMK A01 T00031040  RH  073%=      5-min Rain = 0
KEA1 130717Z 27007KT 00/M04 A2998 RMK A01 T00021041  RH  073%=      5-min Rain = 0
KEA1 130718Z 27007KT 00/M04 A2997 RMK A01 T00021041  RH  073%=      5-min Rain = 0
KEA1 130719Z 27007KT 00/M04 A2997 RMK A01 T00011040  RH  074%=      5-min Rain = 0
KEA1 130720Z 27007KT 00/M04 A2998 RMK A01 T00011039  RH  074%=      5-min Rain = 0
KEA1 130721Z 27008KT 00/M04 A2998 RMK A01 T00011038  RH  075%=      5-min Rain = 0
KEA1 130722Z 27008KT 00/M04 A2998 RMK A01 T00011039  RH  074%=      5-min Rain = 0
KEA1 130723Z 27008KT 00/M04 A2998 RMK A01 T00011040  RH  074%=      5-min Rain = 0
KEA1 130724Z 27008KT 00/M04 A2998 RMK A01 T00011041  RH  073%=      5-min Rain = 0
KEA1 130725Z 26008KT 00/M04 A2998 RMK A01 T00021041  RH  073%=      5-min Rain = 0
KEA1 130726Z 27008KT 00/M04 A2998 RMK A01 T00011041  RH  073%=      5-min Rain = 0
KEA1 130727Z 28008KT 00/M04 A2998 RMK A01 T00011041  RH  073%=      5-min Rain = 0
KEA1 130728Z 28008KT 00/M04 A2998 RMK A01 T00021040  RH  073%=      5-min Rain = 0
KEA1 130729Z 28009KT 00/M04 A2998 RMK A01 T00011041  RH  073%=      5-min Rain = 0
KEA1 130730Z 27008KT 00/M04 A2998 RMK A01 T00011041  RH  074%=      5-min Rain = 0
KEA1 130731Z 26007KT 00/04 A2998 RMK A01 T00000-40  RH  074%=      5-min Rain = 0
KEA1 130732Z 27008KT 00/04 A2997 RMK A01 T00000-40  RH  074%=      5-min Rain = 0
KEA1 130733Z 27006KT 00/04 A2997 RMK A01 T00000-40  RH  074%=      5-min Rain = 0
KEA1 130734Z 27007KT 00/04 A2998 RMK A01 T00000-40  RH  074%=      5-min Rain = 0
KEA1 130735Z 28006KT 00/04 A2998 RMK A01 T00-00-41  RH  074%=      5-min Rain = 0
KEA1 130736Z 28006KT M00/M04 A2998 RMK A01 T10011041  RH  075%=      5-min Rain = 0
KEA1 130737Z 29006KT M00/M04 A2998 RMK A01 T10011040  RH  075%=      5-min Rain = 0
KEA1 130738Z 29005KT M00/M04 A2998 RMK A01 T10021041  RH  075%=      5-min Rain = 0
KEA1 130739Z 30005KT M00/M04 A2998 RMK A01 T10021041  RH  075%=      5-min Rain = 0
KEA1 130740Z 31005KT M00/M04 A2998 RMK A01 T10031041  RH  075%=      5-min Rain = 0
KEA1 130741Z 31004KT M00/M04 A2998 RMK A01 T10041040  RH  076%=      5-min Rain = 0
KEA1 130742Z 31004KT M00/M04 A2998 RMK A01 T10041040  RH  077%=      5-min Rain = 0
KEA1 130743Z 31004KT M01/M04 A2998 RMK A01 T10051040  RH  077%=      5-min Rain = 0
KEA1 130744Z 32004KT M01/M04 A2998 RMK A01 T10061040  RH  077%=      5-min Rain = 0
KEA1 130745Z 33004KT M01/M04 A2998 RMK A01 T10061040  RH  078%=      5-min Rain = 0
KEA1 130746Z 33004KT M01/M04 A2998 RMK A01 T10061039  RH  078%=      5-min Rain = 0
KEA1 130747Z 34005KT M01/M04 A2998 RMK A01 T10061039  RH  079%=      5-min Rain = 0
KEA1 130748Z 34005KT M01/M04 A2997 RMK A01 T10061038  RH  079%=      5-min Rain = 0
KEA1 130749Z 34005KT M01/M04 A2997 RMK A01 T10061038  RH  079%=      5-min Rain = 0
KEA1 130750Z 34006KT M01/M04 A2997 RMK A01 T10061039  RH  078%=      5-min Rain = 0
KEA1 130751Z 33005KT M01/M04 A2997 RMK A01 T10061039  RH  078%=      5-min Rain = 0
KEA1 130752Z 32005KT M01/M04 A2997 RMK A01 T10061039  RH  078%=      5-min Rain = 0
KEA1 130753Z 32005KT M01/M04 A2997 RMK A01 T10061038  RH  079%=      5-min Rain = 0
KEA1 130754Z 31005KT M01/M04 A2997 RMK A01 T10061039  RH  078%=      5-min Rain = 0
KEA1 130755Z 30006KT M01/M04 A2997 RMK A01 T10061040  RH  078%=      5-min Rain = 0
KEA1 130756Z 30006KT M00/M04 A2997 RMK A01 T10031035  RH  079%=      5-min Rain = 0
KEA1 130757Z 30006KT M00/M04 A2997 RMK A01 T10021039  RH  076%=      5-min Rain = 0
KEA1 130758Z 30007KT M00/M04 A2997 RMK A01 T10041040  RH  077%=      5-min Rain = 0
KEA1 130759Z 29007KT M00/M04 A2997 RMK A01 T10031039  RH  077%=      5-min Rain = 0
KEA1 130800Z 28007KT M01/M04 A2997 RMK A01 T10051041  RH  076%=      5-min Rain = 0
KEA1 130801Z 27008KT M01/M04 A2997 RMK A01 T10071043  RH  077%=      5-min Rain = 0
KEA1 130802Z 28007KT M01/M04 A2997 RMK A01 T10071041  RH  078%=      5-min Rain = 0
KEA1 130803Z 28007KT M01/M04 A2997 RMK A01 T10071041  RH  078%=      5-min Rain = 0
KEA1 130804Z 29007KT M01/M04 A2997 RMK A01 T10081041  RH  078%=      5-min Rain = 0
KEA1 130805Z 29007KT M01/M04 A2997 RMK A01 T10071040  RH  078%=      5-min Rain = 0
KEA1 130806Z 29007KT M01/M04 A2997 RMK A01 T10051039  RH  078%=      5-min Rain = 0
KEA1 130807Z 28008KT M00/M04 A2997 RMK A01 T10041038  RH  078%=      5-min Rain = 0
KEA1 130808Z 28008KT M00/M04 A2998 RMK A01 T10031037  RH  078%=      5-min Rain = 0
KEA1 130809Z 28008KT M00/M04 A2998 RMK A01 T10031037  RH  078%=      5-min Rain = 0
KEA1 130810Z 27008KT M00/M04 A2998 RMK A01 T10041038  RH  078%=      5-min Rain = 0
KEA1 130811Z 27007KT M00/M04 A2997 RMK A01 T10041037  RH  078%=      5-min Rain = 0
KEA1 130812Z 27007KT M00/M04 A2997 RMK A01 T10031037  RH  078%=      5-min Rain = 0
KEA1 130813Z 27008KT M00/M04 A2998 RMK A01 T10041037  RH  078%=      5-min Rain = 0
KEA1 130814Z 27008KT M00/M04 A2998 RMK A01 T10041036  RH  079%=      5-min Rain = 0
KEA1 130815Z 27007KT M00/M04 A2998 RMK A01 T10041036  RH  079%=      5-min Rain = 0
KEA1 130816Z 27008KT M01/M04 A2998 RMK A01 T10051036  RH  079%=      5-min Rain = 0
KEA1 130817Z 26009KT M00/M04 A2998 RMK A01 T10041035  RH  080%=      5-min Rain = 0
KEA1 130818Z 26009KT M00/M04 A2998 RMK A01 T10041035  RH  079%=      5-min Rain = 0
KEA1 130819Z 26009KT M00/M04 A2998 RMK A01 T10021035  RH  079%=      5-min Rain = 0
KEA1 130820Z 26009KT M00/M04 A2998 RMK A01 T10011036  RH  078%=      5-min Rain = 0
KEA1 130821Z 26009KT M00/M04 A2998 RMK A01 T10011036  RH  077%=      5-min Rain = 0
KEA1 130822Z 26009KT M00/M04 A2998 RMK A01 T10011036  RH  077%=      5-min Rain = 0
KEA1 130823Z 26009KT M00/M04 A2998 RMK A01 T10011036  RH  077%=      5-min Rain = 0
KEA1 130824Z 26009KT M00/M04 A2998 RMK A01 T10011037  RH  077%=      5-min Rain = 0
KEA1 130825Z 26009KT M00/M04 A2998 RMK A01 T10011038  RH  077%=      5-min Rain = 0
KEA1 130826Z 26009KT M00/M04 A2998 RMK A01 T10011038  RH  076%=      5-min Rain = 0
KEA1 130827Z 26009KT 00/04 A2998 RMK A01 T00-00-38  RH  076%=      5-min Rain = 0
KEA1 130828Z 26009KT 00/04 A2998 RMK A01 T00000-38  RH  075%=      5-min Rain = 0
KEA1 130829Z 26009KT 00/M04 A2998 RMK A01 T00011038  RH  075%=      5-min Rain = 0
KEA1 130830Z 26009KT 00/M04 A2998 RMK A01 T00021039  RH  074%=      5-min Rain = 0
KEA1 130831Z 26009KT 00/M04 A2998 RMK A01 T00021039  RH  074%=      5-min Rain = 0
KEA1 130832Z 26010KT 00/M04 A2998 RMK A01 T00031038  RH  074%=      5-min Rain = 0
KEA1 130833Z 26010KT 01/M04 A2998 RMK A01 T00051038  RH  073%=      5-min Rain = 0
KEA1 130834Z 26010KT 01/M04 A2998 RMK A01 T00051038  RH  073%=      5-min Rain = 0
KEA1 130835Z 26010KT 01/M04 A2998 RMK A01 T00051038  RH  073%=      5-min Rain = 0
KEA1 130836Z 26010KT 01/M04 A2998 RMK A01 T00051038  RH  073%=      5-min Rain = 0
KEA1 130837Z 26010KT 01/M04 A2998 RMK A01 T00061037  RH  073%=      5-min Rain = 0
KEA1 130838Z 25010KT 01/M04 A2998 RMK A01 T00071037  RH  073%=      5-min Rain = 0
KEA1 130839Z 25010KT 01/M04 A2998 RMK A01 T00081037  RH  072%=      5-min Rain = 0
KEA1 130840Z 26010KT 01/M04 A2998 RMK A01 T00081037  RH  072%=      5-min Rain = 0
KEA1 130841Z 26010KT 01/M04 A2998 RMK A01 T00101036  RH  071%=      5-min Rain = 0
KEA1 130842Z 26010KT 01/M04 A2998 RMK A01 T00111036  RH  071%=      5-min Rain = 0
KEA1 130843Z 26011KT 01/M04 A2998 RMK A01 T00121036  RH  071%=      5-min Rain = 0
KEA1 130844Z 26010KT 01/M04 A2998 RMK A01 T00121036  RH  070%=      5-min Rain = 0
KEA1 130845Z 26010KT 01/M04 A2998 RMK A01 T00121037  RH  070%=      5-min Rain = 0
KEA1 130846Z 26010KT 01/M04 A2998 RMK A01 T00111037  RH  070%=      5-min Rain = 0
KEA1 130847Z 27009KT 01/M04 A2998 RMK A01 T00101037  RH  071%=      5-min Rain = 0
KEA1 130848Z 27009KT 01/M04 A2998 RMK A01 T00101036  RH  071%=      5-min Rain = 0
KEA1 130849Z 26009KT 01/M04 A2998 RMK A01 T00101036  RH  071%=      5-min Rain = 0
KEA1 130850Z 27010KT 01/M04 A2999 RMK A01 T00101036  RH  071%=      5-min Rain = 0
KEA1 130851Z 26010KT 01/M04 A2998 RMK A01 T00101036  RH  071%=      5-min Rain = 0
KEA1 130852Z 26009KT 01/M04 A2998 RMK A01 T00111035  RH  071%=      5-min Rain = 0
KEA1 130853Z 26009KT 01/M04 A2998 RMK A01 T00121035  RH  071%=      5-min Rain = 0
KEA1 130854Z 26009KT 01/M04 A2998 RMK A01 T00121035  RH  071%=      5-min Rain = 0
KEA1 130855Z 26008KT 01/M04 A2998 RMK A01 T00131035  RH  070%=      5-min Rain = 0
KEA1 130856Z 26008KT 01/M04 A2998 RMK A01 T00131035  RH  070%=      5-min Rain = 0
KEA1 130857Z 26009KT 01/M04 A2998 RMK A01 T00131036  RH  070%=      5-min Rain = 0
KEA1 130858Z 26009KT 01/M04 A2998 RMK A01 T00141036  RH  069%=      5-min Rain = 0
KEA1 130859Z 26009KT 01/M04 A2998 RMK A01 T00141037  RH  069%=      5-min Rain = 0
KEA1 130900Z 27009KT 01/M04 A2998 RMK A01 T00141037  RH  069%=      5-min Rain = 0
KEA1 130901Z 27010KT 01/M04 A2998 RMK A01 T00141037  RH  069%=      5-min Rain = 0
KEA1 130902Z 26010KT 01/M04 A2998 RMK A01 T00131037  RH  069%=      5-min Rain = 0
KEA1 130903Z 26010KT 01/M04 A2998 RMK A01 T00121037  RH  070%=      5-min Rain = 0
KEA1 130904Z 26009KT 01/M04 A2998 RMK A01 T00121038  RH  070%=      5-min Rain = 0
KEA1 130905Z 26009KT 01/M04 A2998 RMK A01 T00121038  RH  069%=      5-min Rain = 0
KEA1 130906Z 26009KT 01/M04 A2998 RMK A01 T00111038  RH  070%=      5-min Rain = 0
KEA1 130907Z 26008KT 01/M04 A2998 RMK A01 T00111038  RH  070%=      5-min Rain = 0
KEA1 130908Z 26008KT 01/M04 A2997 RMK A01 T00101038  RH  070%=      5-min Rain = 0
KEA1 130909Z 26008KT 01/M04 A2997 RMK A01 T00101038  RH  070%=      5-min Rain = 0
KEA1 130910Z 26008KT 01/M04 A2997 RMK A01 T00101038  RH  070%=      5-min Rain = 0
KEA1 130911Z 25008KT 01/M04 A2997 RMK A01 T00101039  RH  070%=      5-min Rain = 0
KEA1 130912Z 25008KT 01/M04 A2997 RMK A01 T00101039  RH  070%=      5-min Rain = 0
KEA1 130913Z 26008KT 01/M04 A2997 RMK A01 T00091039  RH  070%=      5-min Rain = 0
KEA1 130914Z 26008KT 01/M04 A2997 RMK A01 T00081040  RH  070%=      5-min Rain = 0
KEA1 130915Z 26008KT 01/M04 A2997 RMK A01 T00081039  RH  070%=      5-min Rain = 0
KEA1 130916Z 26008KT 01/M04 A2997 RMK A01 T00081040  RH  070%=      5-min Rain = 0
KEA1 130917Z 25008KT 01/M04 A2997 RMK A01 T00081040  RH  070%=      5-min Rain = 0
KEA1 130918Z 25008KT 01/M04 A2997 RMK A01 T00091040  RH  070%=      5-min Rain = 0
KEA1 130919Z 25008KT 01/M04 A2997 RMK A01 T00091040  RH  070%=      5-min Rain = 0
KEA1 130920Z 25008KT 01/M04 A2996 RMK A01 T00101040  RH  070%=      5-min Rain = 0
KEA1 130921Z 26009KT 01/M04 A2996 RMK A01 T00111039  RH  069%=      5-min Rain = 0
KEA1 130922Z 26009KT 01/M04 A2997 RMK A01 T00131038  RH  069%=      5-min Rain = 0
KEA1 130923Z 26009KT 01/M04 A2997 RMK A01 T00141038  RH  068%=      5-min Rain = 0
KEA1 130924Z 26008KT 02/M04 A2997 RMK A01 T00151038  RH  068%=      5-min Rain = 0
KEA1 130925Z 26009KT 02/M04 A2997 RMK A01 T00151038  RH  068%=      5-min Rain = 0
KEA1 130926Z 26009KT 02/M04 A2997 RMK A01 T00151038  RH  068%=      5-min Rain = 0
KEA1 130927Z 26009KT 02/M04 A2997 RMK A01 T00151038  RH  068%=      5-min Rain = 0
KEA1 130928Z 27008KT 02/M04 A2997 RMK A01 T00161038  RH  068%=      5-min Rain = 0
KEA1 130929Z 27009KT 02/M04 A2997 RMK A01 T00161037  RH  068%=      5-min Rain = 0
KEA1 130930Z 27009KT 02/M04 A2997 RMK A01 T00151037  RH  068%=      5-min Rain = 0
KEA1 130931Z 26009KT 02/M04 A2997 RMK A01 T00151036  RH  069%=      5-min Rain = 0
KEA1 130932Z 26009KT 02/M04 A2996 RMK A01 T00161036  RH  069%=      5-min Rain = 0
KEA1 130933Z 26010KT 02/M04 A2996 RMK A01 T00161036  RH  068%=      5-min Rain = 0
KEA1 130934Z 26010KT 02/M04 A2996 RMK A01 T00171035  RH  068%=      5-min Rain = 0
KEA1 130935Z 26010KT 02/M04 A2996 RMK A01 T00171035  RH  068%=      5-min Rain = 0
KEA1 130936Z 26011KT 02/M03 A2996 RMK A01 T00181034  RH  068%=      5-min Rain = 0
KEA1 130937Z 26011KT 02/M04 A2997 RMK A01 T00171035  RH  069%=      5-min Rain = 0
KEA1 130938Z 26012KT 02/M03 A2997 RMK A01 T00171034  RH  069%=      5-min Rain = 0
KEA1 130939Z 26012KT 02/M03 A2997 RMK A01 T00181033  RH  069%=      5-min Rain = 0
KEA1 130940Z 26012KT 02/M03 A2997 RMK A01 T00201033  RH  068%=      5-min Rain = 0
KEA1 130941Z 27011KT 02/M03 A2997 RMK A01 T00221032  RH  067%=      5-min Rain = 0
KEA1 130942Z 26011KT 02/M03 A2997 RMK A01 T00231032  RH  067%=      5-min Rain = 0
KEA1 130943Z 27011KT 02/M03 A2997 RMK A01 T00231033  RH  067%=      5-min Rain = 0
KEA1 130944Z 26010KT 02/M03 A2997 RMK A01 T00231033  RH  067%=      5-min Rain = 0
KEA1 130945Z 26010KT 02/M03 A2997 RMK A01 T00231032  RH  067%=      5-min Rain = 0
KEA1 130946Z 26010KT 02/M03 A2997 RMK A01 T00221033  RH  067%=      5-min Rain = 0
KEA1 130947Z 26010KT 02/M03 A2997 RMK A01 T00231032  RH  067%=      5-min Rain = 0
KEA1 130948Z 26010KT 02/M03 A2997 RMK A01 T00231032  RH  067%=      5-min Rain = 0
KEA1 130949Z 26010KT 02/M03 A2997 RMK A01 T00231032  RH  067%=      5-min Rain = 0
KEA1 130950Z 26010KT 02/M03 A2997 RMK A01 T00231032  RH  067%=      5-min Rain = 0
KEA1 130951Z 27009KT 02/M03 A2997 RMK A01 T00241032  RH  067%=      5-min Rain = 0
KEA1 130952Z 26009KT 02/M03 A2997 RMK A01 T00231032  RH  067%=      5-min Rain = 0
KEA1 130953Z 26009KT 02/M03 A2997 RMK A01 T00231032  RH  067%=      5-min Rain = 0
KEA1 130954Z 26009KT 02/M03 A2997 RMK A01 T00221033  RH  067%=      5-min Rain = 0
KEA1 130955Z 26009KT 02/M03 A2996 RMK A01 T00211033  RH  068%=      5-min Rain = 0
KEA1 130956Z 25009KT 02/M03 A2996 RMK A01 T00201033  RH  068%=      5-min Rain = 0
KEA1 130957Z 25009KT 02/M03 A2996 RMK A01 T00201033  RH  068%=      5-min Rain = 0
KEA1 130958Z 26008KT 02/M03 A2996 RMK A01 T00201033  RH  068%=      5-min Rain = 0
KEA1 130959Z 26009KT 02/M03 A2996 RMK A01 T00201033  RH  068%=      5-min Rain = 0
KEA1 131000Z 26008KT 02/M03 A2997 RMK A01 T00191033  RH  068%=      5-min Rain = 0
KEA1 131001Z 26008KT 02/M03 A2996 RMK A01 T00191033  RH  069%=      5-min Rain = 0
KEA1 131002Z 26008KT 02/M03 A2996 RMK A01 T00181033  RH  069%=      5-min Rain = 0
KEA1 131003Z 26008KT 02/M03 A2996 RMK A01 T00181033  RH  069%=      5-min Rain = 0
KEA1 131004Z 26008KT 02/M03 A2996 RMK A01 T00171033  RH  069%=      5-min Rain = 0
KEA1 131005Z 26008KT 02/M03 A2996 RMK A01 T00171033  RH  069%=      5-min Rain = 0
KEA1 131006Z 26010KT 02/M03 A2996 RMK A01 T00171033  RH  070%=      5-min Rain = 0
KEA1 131007Z 26010KT 02/M03 A2996 RMK A01 T00161033  RH  070%=      5-min Rain = 0
KEA1 131008Z 26010KT 02/M03 A2996 RMK A01 T00171033  RH  069%=      5-min Rain = 0
KEA1 131009Z 26010KT 02/M03 A2996 RMK A01 T00171033  RH  069%=      5-min Rain = 0
KEA1 131010Z 26010KT 02/M03 A2996 RMK A01 T00181033  RH  069%=      5-min Rain = 0
KEA1 131011Z 26011KT 02/M03 A2996 RMK A01 T00181033  RH  069%=      5-min Rain = 0
KEA1 131012Z 26011KT 02/M03 A2996 RMK A01 T00181033  RH  069%=      5-min Rain = 0
KEA1 131013Z 26011KT 02/M03 A2996 RMK A01 T00181033  RH  069%=      5-min Rain = 0
KEA1 131014Z 26011KT 02/M03 A2996 RMK A01 T00181033  RH  069%=      5-min Rain = 0
KEA1 131015Z 26012KT 02/M03 A2996 RMK A01 T00181032  RH  069%=      5-min Rain = 0
KEA1 131016Z 26011KT 02/M03 A2996 RMK A01 T00191032  RH  069%=      5-min Rain = 0
KEA1 131017Z 26012KT 02/M03 A2996 RMK A01 T00201031  RH  069%=      5-min Rain = 0
KEA1 131018Z 26012KT 02/M03 A2996 RMK A01 T00211030  RH  069%=      5-min Rain = 0
KEA1 131019Z 26013KT 02/M03 A2996 RMK A01 T00221030  RH  069%=      5-min Rain = 0
KEA1 131020Z 26013KT 02/M03 A2996 RMK A01 T00231029  RH  068%=      5-min Rain = 0
KEA1 131021Z 26013KT 02/M03 A2996 RMK A01 T00241030  RH  068%=      5-min Rain = 0
KEA1 131022Z 26012KT 03/M03 A2995 RMK A01 T00251030  RH  067%=      5-min Rain = 0
KEA1 131023Z 26012KT 03/M03 A2995 RMK A01 T00251030  RH  067%=      5-min Rain = 0
KEA1 131024Z 26012KT 02/M03 A2995 RMK A01 T00241030  RH  067%=      5-min Rain = 0
KEA1 131025Z 26013KT 03/M03 A2995 RMK A01 T00251030  RH  067%=      5-min Rain = 0
KEA1 131026Z 26013KT 03/M03 A2995 RMK A01 T00261030  RH  067%=      5-min Rain = 0
KEA1 131027Z 26013KT 03/M03 A2995 RMK A01 T00261030  RH  066%=      5-min Rain = 0
KEA1 131028Z 26013KT 03/M03 A2995 RMK A01 T00271030  RH  066%=      5-min Rain = 0
KEA1 131029Z 26013KT 03/M03 A2995 RMK A01 T00271031  RH  066%=      5-min Rain = 0
KEA1 131030Z 26012KT 03/M03 A2995 RMK A01 T00281030  RH  065%=      5-min Rain = 0
KEA1 131031Z 26014KT 03/M03 A2995 RMK A01 T00281030  RH  065%=      5-min Rain = 0
KEA1 131032Z 26014KT 03/M03 A2995 RMK A01 T00291030  RH  065%=      5-min Rain = 0
KEA1 131033Z 26014KT 03/M03 A2995 RMK A01 T00301030  RH  065%=      5-min Rain = 0
KEA1 131034Z 26015KT 03/M03 A2995 RMK A01 T00311030  RH  065%=      5-min Rain = 0
KEA1 131035Z 26014KT 03/M03 A2995 RMK A01 T00311029  RH  064%=      5-min Rain = 0
KEA1 131036Z 26014KT 03/M03 A2995 RMK A01 T00311030  RH  064%=      5-min Rain = 0
KEA1 131037Z 26014KT 03/M03 A2995 RMK A01 T00321030  RH  064%=      5-min Rain = 0
KEA1 131038Z 27013KT 03/M03 A2995 RMK A01 T00321030  RH  064%=      5-min Rain = 0
KEA1 131039Z 26013KT 03/M03 A2995 RMK A01 T00321030  RH  064%=      5-min Rain = 0
KEA1 131040Z 26014KT 03/M03 A2995 RMK A01 T00321030  RH  064%=      5-min Rain = 0
KEA1 131041Z 26014KT 03/M03 A2995 RMK A01 T00321030  RH  064%=      5-min Rain = 0
KEA1 131042Z 26013KT 03/M03 A2995 RMK A01 T00331029  RH  064%=      5-min Rain = 0
KEA1 131043Z 26013KT 03/M03 A2995 RMK A01 T00331030  RH  063%=      5-min Rain = 0
KEA1 131044Z 27013KT 03/M03 A2995 RMK A01 T00331030  RH  063%=      5-min Rain = 0
KEA1 131045Z 27013KT 03/M03 A2996 RMK A01 T00331030  RH  063%=      5-min Rain = 0
KEA1 131046Z 27011KT 03/M03 A2996 RMK A01 T00331030  RH  063%=      5-min Rain = 0
KEA1 131047Z 27012KT 03/M03 A2996 RMK A01 T00331029  RH  064%=      5-min Rain = 0
KEA1 131048Z 27012KT 03/M03 A2996 RMK A01 T00331029  RH  064%=      5-min Rain = 0
KEA1 131049Z 27013KT 03/M03 A2996 RMK A01 T00331029  RH  064%=      5-min Rain = 0
KEA1 131050Z 27012KT 03/M03 A2996 RMK A01 T00341028  RH  063%=      5-min Rain = 0
KEA1 131051Z 26012KT 04/M03 A2996 RMK A01 T00351029  RH  063%=      5-min Rain = 0
KEA1 131052Z 27013KT 04/M03 A2996 RMK A01 T00351029  RH  063%=      5-min Rain = 0
KEA1 131053Z 27012KT 04/M03 A2996 RMK A01 T00351029  RH  063%=      5-min Rain = 0
KEA1 131054Z 26012KT 04/M03 A2996 RMK A01 T00351030  RH  062%=      5-min Rain = 0
KEA1 131055Z 26012KT 04/M03 A2996 RMK A01 T00361031  RH  062%=      5-min Rain = 0
KEA1 131056Z 26012KT 04/M03 A2995 RMK A01 T00351031  RH  062%=      5-min Rain = 0
KEA1 131057Z 26013KT 04/M03 A2995 RMK A01 T00351031  RH  062%=      5-min Rain = 0
KEA1 131058Z 26013KT 04/M03 A2996 RMK A01 T00361031  RH  062%=      5-min Rain = 0
KEA1 131059Z 26012KT 04/M03 A2996 RMK A01 T00351032  RH  062%=      5-min Rain = 0
KEA1 131100Z 26011KT 04/M03 A2995 RMK A01 T00351032  RH  062%=      5-min Rain = 0
KEA1 131101Z 27012KT 04/M03 A2995 RMK A01 T00361031  RH  062%=      5-min Rain = 0
KEA1 131102Z 26012KT 04/M03 A2996 RMK A01 T00351032  RH  062%=      5-min Rain = 0
KEA1 131103Z 26013KT 04/M03 A2996 RMK A01 T00351032  RH  062%=      5-min Rain = 0
KEA1 131104Z 26014KT 04/M03 A2996 RMK A01 T00361031  RH  061%=      5-min Rain = 0
KEA1 131105Z 26015KT 04/M03 A2996 RMK A01 T00371031  RH  061%=      5-min Rain = 0
KEA1 131106Z 26014KT 04/M03 A2996 RMK A01 T00381031  RH  061%=      5-min Rain = 0
KEA1 131107Z 26014KT 04/M03 A2995 RMK A01 T00381031  RH  061%=      5-min Rain = 0
KEA1 131108Z 26014KT 04/M03 A2995 RMK A01 T00391031  RH  061%=      5-min Rain = 0
KEA1 131109Z 26013KT 04/M03 A2995 RMK A01 T00391031  RH  061%=      5-min Rain = 0
KEA1 131110Z 26013KT 04/M03 A2995 RMK A01 T00391031  RH  061%=      5-min Rain = 0
KEA1 131111Z 26014KT 04/M03 A2995 RMK A01 T00391031  RH  060%=      5-min Rain = 0
KEA1 131112Z 26014KT 04/M03 A2995 RMK A01 T00391030  RH  061%=      5-min Rain = 0
KEA1 131113Z 26014KT 04/M03 A2996 RMK A01 T00391030  RH  061%=      5-min Rain = 0
KEA1 131114Z 26014KT 04/M03 A2996 RMK A01 T00391030  RH  061%=      5-min Rain = 0
KEA1 131115Z 26013KT 04/M03 A2996 RMK A01 T00401030  RH  060%=      5-min Rain = 0
KEA1 131116Z 26014KT 04/M03 A2996 RMK A01 T00411030  RH  060%=      5-min Rain = 0
KEA1 131117Z 26014KT 04/M03 A2996 RMK A01 T00411030  RH  060%=      5-min Rain = 0
KEA1 131118Z 27013KT 04/M03 A2996 RMK A01 T00421030  RH  060%=      5-min Rain = 0
KEA1 131119Z 26014KT 04/M03 A2997 RMK A01 T00421030  RH  059%=      5-min Rain = 0
KEA1 131120Z 26012KT 04/M03 A2996 RMK A01 T00421030  RH  060%=      5-min Rain = 0
KEA1 131121Z 27013KT 04/M03 A2996 RMK A01 T00421030  RH  060%=      5-min Rain = 0
KEA1 131122Z 27013KT 04/M03 A2996 RMK A01 T00421029  RH  060%=      5-min Rain = 0
KEA1 131123Z 27014KT 04/M03 A2997 RMK A01 T00421030  RH  060%=      5-min Rain = 0
KEA1 131124Z 27014KT 04/M03 A2997 RMK A01 T00411030  RH  060%=      5-min Rain = 0
KEA1 131125Z 27014KT 04/M03 A2997 RMK A01 T00411030  RH  060%=      5-min Rain = 0
KEA1 131126Z 27014KT 04/M03 A2997 RMK A01 T00411030  RH  060%=      5-min Rain = 0
KEA1 131127Z 27013KT 04/M03 A2997 RMK A01 T00411030  RH  060%=      5-min Rain = 0
KEA1 131128Z 27014KT 04/M03 A2997 RMK A01 T00421029  RH  060%=      5-min Rain = 0
KEA1 131129Z 27013KT 04/M03 A2996 RMK A01 T00421029  RH  060%=      5-min Rain = 0
KEA1 131130Z 27011KT 04/M03 A2996 RMK A01 T00421029  RH  060%=      5-min Rain = 0
KEA1 131131Z 27013KT 04/M03 A2996 RMK A01 T00411029  RH  060%=      5-min Rain = 0
KEA1 131132Z 27013KT 04/M03 A2997 RMK A01 T00411029  RH  060%=      5-min Rain = 0
KEA1 131133Z 26013KT 04/M03 A2997 RMK A01 T00411029  RH  060%=      5-min Rain = 0
KEA1 131134Z 27012KT 04/M03 A2997 RMK A01 T00411029  RH  060%=      5-min Rain = 0
KEA1 131135Z 27012KT 04/M03 A2997 RMK A01 T00411029  RH  060%=      5-min Rain = 0
KEA1 131136Z 27013KT 04/M03 A2997 RMK A01 T00401029  RH  060%=      5-min Rain = 0
KEA1 131137Z 26013KT 04/M03 A2997 RMK A01 T00401030  RH  061%=      5-min Rain = 0
KEA1 131138Z 27014KT 04/M03 A2997 RMK A01 T00401029  RH  061%=      5-min Rain = 0
KEA1 131139Z 27013KT 04/M03 A2997 RMK A01 T00391029  RH  061%=      5-min Rain = 0
KEA1 131140Z 27013KT 04/M03 A2996 RMK A01 T00401029  RH  061%=      5-min Rain = 0
KEA1 131141Z 27013KT 04/M03 A2996 RMK A01 T00401029  RH  061%=      5-min Rain = 0
KEA1 131142Z 27013KT 04/M03 A2996 RMK A01 T00391029  RH  061%=      5-min Rain = 0
KEA1 131143Z 27012KT 04/M03 A2996 RMK A01 T00391029  RH  061%=      5-min Rain = 0
KEA1 131144Z 27012KT 04/M03 A2996 RMK A01 T00391029  RH  061%=      5-min Rain = 0
KEA1 131145Z 27011KT 04/M03 A2996 RMK A01 T00391029  RH  061%=      5-min Rain = 0
KEA1 131146Z 28012KT 04/M03 A2996 RMK A01 T00391028  RH  062%=      5-min Rain = 0
KEA1 131147Z 27011KT 04/M03 A2996 RMK A01 T00391028  RH  062%=      5-min Rain = 0
KEA1 131148Z 27012KT 04/M03 A2996 RMK A01 T00391028  RH  062%=      5-min Rain = 0
KEA1 131149Z 27012KT 04/M03 A2996 RMK A01 T00391027  RH  062%=      5-min Rain = 0
KEA1 131150Z 27012KT 04/M03 A2996 RMK A01 T00391027  RH  062%=      5-min Rain = 0
KEA1 131151Z 27012KT 04/M03 A2996 RMK A01 T00391027  RH  062%=      5-min Rain = 0
KEA1 131152Z 27012KT 04/M03 A2996 RMK A01 T00391027  RH  062%=      5-min Rain = 0
KEA1 131153Z 27011KT 04/M03 A2996 RMK A01 T00391027  RH  062%=      5-min Rain = 0
KEA1 131154Z 27012KT 04/M03 A2996 RMK A01 T00381027  RH  062%=      5-min Rain = 0
KEA1 131155Z 27012KT 04/M03 A2996 RMK A01 T00381027  RH  063%=      5-min Rain = 0
KEA1 131156Z 27011KT 04/M03 A2996 RMK A01 T00381027  RH  063%=      5-min Rain = 0
KEA1 131157Z 27011KT 04/M03 A2996 RMK A01 T00381027  RH  063%=      5-min Rain = 0
KEA1 131158Z 27012KT 04/M03 A2996 RMK A01 T00381027  RH  062%=      5-min Rain = 0
KEA1 131159Z 27011KT 04/M03 A2996 RMK A01 T00381027  RH  062%=      5-min Rain = 0
KEA1 131200Z 26011KT 04/M03 A2996 RMK A01 T00381027  RH  062%=      5-min Rain = 0
KEA1 131201Z 26012KT 04/M03 A2996 RMK A01 T00381027  RH  062%=      5-min Rain = 0
KEA1 131202Z 26012KT 04/M03 A2996 RMK A01 T00381028  RH  062%=      5-min Rain = 0
KEA1 131203Z 26011KT 04/M03 A2997 RMK A01 T00381028  RH  062%=      5-min Rain = 0
KEA1 131204Z 26011KT 04/M03 A2996 RMK A01 T00391027  RH  062%=      5-min Rain = 0
KEA1 131205Z 27011KT 04/M03 A2996 RMK A01 T00381027  RH  062%=      5-min Rain = 0
KEA1 131206Z 27010KT 04/M03 A2996 RMK A01 T00391027  RH  062%=      5-min Rain = 0
KEA1 131207Z 26011KT 04/M03 A2996 RMK A01 T00391027  RH  062%=      5-min Rain = 0
KEA1 131208Z 26010KT 04/M03 A2996 RMK A01 T00391027  RH  062%=      5-min Rain = 0
KEA1 131209Z 26009KT 04/M03 A2996 RMK A01 T00391026  RH  063%=      5-min Rain = 0
KEA1 131210Z 26010KT 04/M03 A2996 RMK A01 T00381027  RH  063%=      5-min Rain = 0
KEA1 131211Z 26010KT 04/M03 A2996 RMK A01 T00381026  RH  063%=      5-min Rain = 0
KEA1 131212Z 26010KT 04/M03 A2996 RMK A01 T00381027  RH  063%=      5-min Rain = 0
KEA1 131213Z 26011KT 04/M03 A2996 RMK A01 T00371026  RH  063%=      5-min Rain = 0
KEA1 131214Z 26010KT 04/M03 A2996 RMK A01 T00371027  RH  063%=      5-min Rain = 0
KEA1 131215Z 26010KT 04/M03 A2996 RMK A01 T00371026  RH  063%=      5-min Rain = 0
KEA1 131216Z 26010KT 04/M03 A2996 RMK A01 T00371026  RH  064%=      5-min Rain = 0
KEA1 131217Z 26010KT 04/M03 A2996 RMK A01 T00361026  RH  064%=      5-min Rain = 0
KEA1 131218Z 26010KT 04/M03 A2996 RMK A01 T00361026  RH  064%=      5-min Rain = 0
KEA1 131219Z 26010KT 04/M03 A2996 RMK A01 T00361026  RH  064%=      5-min Rain = 0
KEA1 131220Z 26010KT 04/M03 A2996 RMK A01 T00361025  RH  064%=      5-min Rain = 0
KEA1 131221Z 26010KT 04/M03 A2996 RMK A01 T00361025  RH  064%=      5-min Rain = 0
KEA1 131222Z 27009KT 04/M03 A2996 RMK A01 T00361025  RH  064%=      5-min Rain = 0
KEA1 131223Z 26010KT 04/M03 A2996 RMK A01 T00361025  RH  064%=      5-min Rain = 0
KEA1 131224Z 27010KT 04/M03 A2996 RMK A01 T00361025  RH  064%=      5-min Rain = 0
KEA1 131225Z 27010KT 04/M03 A2996 RMK A01 T00361025  RH  064%=      5-min Rain = 0
KEA1 131226Z 27010KT 04/M03 A2996 RMK A01 T00361025  RH  064%=      5-min Rain = 0
KEA1 131227Z 27009KT 04/M03 A2996 RMK A01 T00361025  RH  064%=      5-min Rain = 0
KEA1 131228Z 27010KT 04/M02 A2996 RMK A01 T00371024  RH  064%=      5-min Rain = 0
KEA1 131229Z 27009KT 04/M02 A2996 RMK A01 T00371024  RH  064%=      5-min Rain = 0
KEA1 131230Z 27009KT 04/M02 A2996 RMK A01 T00371024  RH  065%=      5-min Rain = 0
KEA1 131231Z 27010KT 04/M02 A2996 RMK A01 T00371024  RH  065%=      5-min Rain = 0
KEA1 131232Z 27010KT 04/M02 A2996 RMK A01 T00371024  RH  065%=      5-min Rain = 0
KEA1 131233Z 27009KT 04/M02 A2996 RMK A01 T00381023  RH  065%=      5-min Rain = 0
KEA1 131234Z 27009KT 04/M02 A2996 RMK A01 T00371023  RH  065%=      5-min Rain = 0
KEA1 131235Z 27009KT 04/M02 A2996 RMK A01 T00371023  RH  065%=      5-min Rain = 0
KEA1 131236Z 27009KT 04/M02 A2996 RMK A01 T00371023  RH  065%=      5-min Rain = 0
KEA1 131237Z 27009KT 04/M02 A2996 RMK A01 T00371023  RH  065%=      5-min Rain = 0
KEA1 131238Z 27008KT 04/M02 A2996 RMK A01 T00371022  RH  065%=      5-min Rain = 0
KEA1 131239Z 27009KT 04/M02 A2996 RMK A01 T00371022  RH  065%=      5-min Rain = 0
KEA1 131240Z 27009KT 04/M02 A2996 RMK A01 T00381022  RH  065%=      5-min Rain = 0
KEA1 131241Z 27009KT 04/M02 A2996 RMK A01 T00371022  RH  065%=      5-min Rain = 0
KEA1 131242Z 27008KT 04/M02 A2996 RMK A01 T00371022  RH  065%=      5-min Rain = 0
KEA1 131243Z 27009KT 04/M02 A2996 RMK A01 T00371022  RH  065%=      5-min Rain = 0
KEA1 131244Z 26009KT 04/M02 A2996 RMK A01 T00371022  RH  066%=      5-min Rain = 0
KEA1 131245Z 26010KT 04/M02 A2996 RMK A01 T00371022  RH  065%=      5-min Rain = 0
KEA1 131246Z 26010KT 04/M02 A2996 RMK A01 T00371022  RH  065%=      5-min Rain = 0
KEA1 131247Z 26010KT 04/M02 A2996 RMK A01 T00371022  RH  066%=      5-min Rain = 0
KEA1 131248Z 26010KT 04/M02 A2996 RMK A01 T00371021  RH  066%=      5-min Rain = 0
KEA1 131249Z 26011KT 04/M02 A2996 RMK A01 T00381021  RH  065%=      5-min Rain = 0
KEA1 131250Z 26011KT 04/M02 A2996 RMK A01 T00391021  RH  065%=      5-min Rain = 0
KEA1 131251Z 26011KT 04/M02 A2996 RMK A01 T00391021  RH  065%=      5-min Rain = 0
KEA1 131252Z 26011KT 04/M02 A2996 RMK A01 T00391021  RH  065%=      5-min Rain = 0
KEA1 131253Z 26010KT 04/M02 A2996 RMK A01 T00401020  RH  065%=      5-min Rain = 0
KEA1 131254Z 26011KT 04/M02 A2996 RMK A01 T00391020  RH  065%=      5-min Rain = 0
KEA1 131255Z 26011KT 04/M02 A2996 RMK A01 T00391020  RH  065%=      5-min Rain = 0
KEA1 131256Z 26011KT 04/M02 A2996 RMK A01 T00391021  RH  065%=      5-min Rain = 0
KEA1 131257Z 26012KT 04/M02 A2995 RMK A01 T00401020  RH  065%=      5-min Rain = 0
KEA1 131258Z 26011KT 04/M02 A2995 RMK A01 T00401020  RH  065%=      5-min Rain = 0
KEA1 131259Z 26011KT 04/M02 A2995 RMK A01 T00411020  RH  064%=      5-min Rain = 0
KEA1 131300Z 26012KT 04/M02 A2995 RMK A01 T00421020  RH  064%=      5-min Rain = 0
KEA1 131301Z 26011KT 04/M02 A2995 RMK A01 T00421020  RH  064%=      5-min Rain = 0
KEA1 131302Z 26011KT 04/M02 A2996 RMK A01 T00431020  RH  064%=      5-min Rain = 0
KEA1 131303Z 26011KT 04/M02 A2996 RMK A01 T00431020  RH  064%=      5-min Rain = 0
KEA1 131304Z 25012KT 04/M02 A2996 RMK A01 T00431020  RH  064%=      5-min Rain = 0
KEA1 131305Z 25012KT 04/M02 A2996 RMK A01 T00421020  RH  064%=      5-min Rain = 0
KEA1 131306Z 25012KT 04/M02 A2996 RMK A01 T00431020  RH  064%=      5-min Rain = 0
KEA1 131307Z 25012KT 04/M02 A2996 RMK A01 T00431020  RH  063%=      5-min Rain = 0
KEA1 131308Z 25012KT 04/M02 A2996 RMK A01 T00431020  RH  063%=      5-min Rain = 0
KEA1 131309Z 25013KT 04/M02 A2996 RMK A01 T00431020  RH  063%=      5-min Rain = 0
KEA1 131310Z 26012KT 04/M02 A2996 RMK A01 T00441020  RH  063%=      5-min Rain = 0
KEA1 131311Z 26012KT 04/M02 A2996 RMK A01 T00441020  RH  063%=      5-min Rain = 0
KEA1 131312Z 26012KT 05/M02 A2996 RMK A01 T00451020  RH  063%=      5-min Rain = 0
KEA1 131313Z 26012KT 05/M02 A2996 RMK A01 T00451021  RH  062%=      5-min Rain = 0
KEA1 131314Z 26012KT 05/M02 A2996 RMK A01 T00451021  RH  062%=      5-min Rain = 0
KEA1 131315Z 25012KT 05/M02 A2996 RMK A01 T00451021  RH  062%=      5-min Rain = 0
KEA1 131316Z 26013KT 05/M02 A2996 RMK A01 T00461021  RH  062%=      5-min Rain = 0
KEA1 131317Z 26013KT 05/M02 A2996 RMK A01 T00451021  RH  062%=      5-min Rain = 0
KEA1 131318Z 25011KT 05/M02 A2996 RMK A01 T00451021  RH  062%=      5-min Rain = 0
KEA1 131319Z 25013KT 05/M02 A2996 RMK A01 T00451022  RH  062%=      5-min Rain = 0
KEA1 131320Z 26013KT 04/M02 A2996 RMK A01 T00441022  RH  062%=      5-min Rain = 0
KEA1 131321Z 25013KT 05/M02 A2996 RMK A01 T00451021  RH  062%=      5-min Rain = 0
KEA1 131322Z 26014KT 05/M02 A2997 RMK A01 T00451021  RH  062%=      5-min Rain = 0
KEA1 131323Z 26013KT 05/M02 A2997 RMK A01 T00451022  RH  062%=      5-min Rain = 0
KEA1 131324Z 26013KT 05/M02 A2997 RMK A01 T00451022  RH  062%=      5-min Rain = 0
KEA1 131325Z 26013KT 05/M02 A2997 RMK A01 T00451021  RH  062%=      5-min Rain = 0
KEA1 131326Z 26014KT 05/M02 A2997 RMK A01 T00451022  RH  062%=      5-min Rain = 0
KEA1 131327Z 26015KT 05/M02 A2997 RMK A01 T00451022  RH  062%=      5-min Rain = 0
KEA1 131328Z 26015G20KT 05/M02 A2997 RMK A01 T00451022  RH  062%=      5-min Rain = 0
KEA1 131329Z 26014KT 05/M02 A2997 RMK A01 T00461021  RH  061%=      5-min Rain = 0
KEA1 131330Z 26014KT 05/M02 A2997 RMK A01 T00461022  RH  061%=      5-min Rain = 0
KEA1 131331Z 26015KT 05/M02 A2997 RMK A01 T00461022  RH  061%=      5-min Rain = 0
KEA1 131332Z 26013KT 05/M02 A2997 RMK A01 T00461022  RH  061%=      5-min Rain = 0
KEA1 131333Z 26014KT 05/M02 A2997 RMK A01 T00461022  RH  061%=      5-min Rain = 0
KEA1 131334Z 26013KT 05/M02 A2997 RMK A01 T00451022  RH  061%=      5-min Rain = 0
KEA1 131335Z 26013KT 05/M02 A2997 RMK A01 T00451022  RH  062%=      5-min Rain = 0
KEA1 131336Z 26014KT 05/M02 A2997 RMK A01 T00451022  RH  062%=      5-min Rain = 0
KEA1 131337Z 26013KT 05/M02 A2997 RMK A01 T00451022  RH  062%=      5-min Rain = 0
KEA1 131338Z 26013KT 05/M02 A2997 RMK A01 T00451022  RH  062%=      5-min Rain = 0
KEA1 131339Z 26012KT 05/M02 A2997 RMK A01 T00451022  RH  062%=      5-min Rain = 0
KEA1 131340Z 26013KT 04/M02 A2997 RMK A01 T00441023  RH  062%=      5-min Rain = 0
KEA1 131341Z 26013KT 05/M02 A2997 RMK A01 T00451022  RH  062%=      5-min Rain = 0
KEA1 131342Z 26013KT 04/M02 A2997 RMK A01 T00441023  RH  062%=      5-min Rain = 0
KEA1 131343Z 25011KT 04/M02 A2997 RMK A01 T00441023  RH  062%=      5-min Rain = 0
KEA1 131344Z 25012KT 04/M02 A2997 RMK A01 T00431023  RH  062%=      5-min Rain = 0
KEA1 131345Z 25011KT 04/M02 A2997 RMK A01 T00431023  RH  063%=      5-min Rain = 0
KEA1 131346Z 26012KT 04/M02 A2997 RMK A01 T00421023  RH  063%=      5-min Rain = 0
KEA1 131347Z 25012KT 04/M02 A2997 RMK A01 T00421022  RH  063%=      5-min Rain = 0
KEA1 131348Z 26013KT 04/M02 A2997 RMK A01 T00421023  RH  063%=      5-min Rain = 0
KEA1 131349Z 26013KT 04/M02 A2997 RMK A01 T00421023  RH  063%=      5-min Rain = 0
KEA1 131350Z 26012KT 04/M02 A2997 RMK A01 T00421023  RH  063%=      5-min Rain = 0
KEA1 131351Z 26014KT 04/M02 A2997 RMK A01 T00411023  RH  063%=      5-min Rain = 0
KEA1 131352Z 26013KT 04/M02 A2997 RMK A01 T00421022  RH  063%=      5-min Rain = 0
KEA1 131353Z 26014KT 04/M02 A2998 RMK A01 T00421022  RH  063%=      5-min Rain = 0
KEA1 131354Z 26016KT 04/M02 A2997 RMK A01 T00411022  RH  063%=      5-min Rain = 0
KEA1 131355Z 26016KT 04/M02 A2998 RMK A01 T00421022  RH  063%=      5-min Rain = 0
KEA1 131356Z 26016KT 04/M02 A2997 RMK A01 T00421021  RH  063%=      5-min Rain = 0
KEA1 131357Z 26017KT 04/M02 A2997 RMK A01 T00431021  RH  063%=      5-min Rain = 0
KEA1 131358Z 26017KT 04/M02 A2997 RMK A01 T00441021  RH  063%=      5-min Rain = 0
KEA1 131359Z 26016KT 05/M02 A2997 RMK A01 T00451021  RH  062%=      5-min Rain = 0
KEA1 131400Z 26018KT 05/M02 A2998 RMK A01 T00451021  RH  062%=      5-min Rain = 0
KEA1 131401Z 26017G22KT 05/M02 A2998 RMK A01 T00471020  RH  062%=      5-min Rain = 0
KEA1 131402Z 26017KT 05/M02 A2998 RMK A01 T00471020  RH  061%=      5-min Rain = 0
KEA1 131403Z 26019KT 05/M02 A2998 RMK A01 T00481020  RH  061%=      5-min Rain = 0
KEA1 131404Z 26018KT 05/M02 A2998 RMK A01 T00491020  RH  061%=      5-min Rain = 0
KEA1 131405Z 26018KT 05/M02 A2998 RMK A01 T00491021  RH  061%=      5-min Rain = 0
KEA1 131406Z 26016KT 05/M02 A2998 RMK A01 T00501021  RH  060%=      5-min Rain = 0
KEA1 131407Z 26017KT 05/M02 A2998 RMK A01 T00501020  RH  060%=      5-min Rain = 0
KEA1 131408Z 26015KT 05/M02 A2998 RMK A01 T00511020  RH  060%=      5-min Rain = 0
KEA1 131409Z 26016KT 05/M02 A2998 RMK A01 T00511021  RH  060%=      5-min Rain = 0
KEA1 131410Z 26014KT 05/M02 A2998 RMK A01 T00521020  RH  060%=      5-min Rain = 0
KEA1 131411Z 26013KT 05/M02 A2998 RMK A01 T00511020  RH  060%=      5-min Rain = 0
KEA1 131412Z 26014KT 05/M02 A2998 RMK A01 T00511020  RH  060%=      5-min Rain = 0
KEA1 131413Z 26014KT 05/M02 A2998 RMK A01 T00511020  RH  060%=      5-min Rain = 0
KEA1 131414Z 27015KT 05/M02 A2998 RMK A01 T00521020  RH  060%=      5-min Rain = 0
KEA1 131415Z 27015KT 05/M02 A2999 RMK A01 T00521020  RH  060%=      5-min Rain = 0
KEA1 131416Z 27013KT 05/M02 A2999 RMK A01 T00531020  RH  060%=      5-min Rain = 0
KEA1 131417Z 27012KT 05/M02 A2999 RMK A01 T00531020  RH  060%=      5-min Rain = 0
KEA1 131418Z 27015KT 05/M02 A2999 RMK A01 T00531020  RH  060%=      5-min Rain = 0
KEA1 131419Z 27014KT 05/M02 A2999 RMK A01 T00531019  RH  059%=      5-min Rain = 0
KEA1 131420Z 27014KT 05/M02 A2999 RMK A01 T00541019  RH  059%=      5-min Rain = 0
KEA1 131421Z 27014KT 05/M02 A2999 RMK A01 T00541019  RH  059%=      5-min Rain = 0
KEA1 131422Z 27013KT 05/M02 A2999 RMK A01 T00541019  RH  059%=      5-min Rain = 0
KEA1 131423Z 27013KT 05/M02 A30 RMK A01 T00541019  RH  059%=      5-min Rain = 0
KEA1 131424Z 27013G18KT 05/M02 A30 RMK A01 T00541018  RH  060%=      5-min Rain = 0
KEA1 131425Z 27015KT 05/M02 A30 RMK A01 T00541018  RH  059%=      5-min Rain = 0
KEA1 131426Z 27015KT 06/M02 A30 RMK A01 T00551018  RH  059%=      5-min Rain = 0
KEA1 131427Z 27014KT 06/M02 A30 RMK A01 T00561018  RH  059%=      5-min Rain = 0
KEA1 131428Z 27013KT 06/M02 A30 RMK A01 T00571018  RH  059%=      5-min Rain = 0
KEA1 131429Z 27013KT 06/M02 A30 RMK A01 T00571018  RH  059%=      5-min Rain = 0
KEA1 131430Z 27013KT 06/M02 A30 RMK A01 T00571017  RH  059%=      5-min Rain = 0
KEA1 131431Z 27011KT 06/M02 A30 RMK A01 T00571017  RH  059%=      5-min Rain = 0
KEA1 131432Z 27013KT 06/M02 A30 RMK A01 T00571016  RH  059%=      5-min Rain = 0
KEA1 131433Z 27012KT 06/M02 A30 RMK A01 T00581016  RH  059%=      5-min Rain = 0
KEA1 131434Z 27013KT 06/M02 A30 RMK A01 T00581016  RH  059%=      5-min Rain = 0
KEA1 131435Z 27013KT 06/M02 A30 RMK A01 T00591016  RH  058%=      5-min Rain = 0
KEA1 131436Z 27013KT 06/M02 A30 RMK A01 T00601016  RH  058%=      5-min Rain = 0
KEA1 131437Z 27012KT 06/M02 A2999 RMK A01 T00601016  RH  058%=      5-min Rain = 0
KEA1 131438Z 27013KT 06/M02 A2999 RMK A01 T00611016  RH  058%=      5-min Rain = 0
KEA1 131439Z 26013KT 06/M02 A2999 RMK A01 T00611016  RH  058%=      5-min Rain = 0
KEA1 131440Z 27015KT 06/M02 A2999 RMK A01 T00621016  RH  057%=      5-min Rain = 0
KEA1 131441Z 27014KT 06/M02 A2999 RMK A01 T00631016  RH  057%=      5-min Rain = 0
KEA1 131442Z 27015KT 06/M02 A2999 RMK A01 T00631017  RH  056%=      5-min Rain = 0
KEA1 131443Z 27013KT 06/M02 A2999 RMK A01 T00641016  RH  056%=      5-min Rain = 0
KEA1 131444Z 27014G19KT 06/M02 A2999 RMK A01 T00641016  RH  057%=      5-min Rain = 0
KEA1 131445Z 27013KT 06/M02 A2998 RMK A01 T00641016  RH  056%=      5-min Rain = 0
KEA1 131446Z 26013KT 07/M02 A2998 RMK A01 T00651016  RH  056%=      5-min Rain = 0
KEA1 131447Z 26015KT 07/M02 A2998 RMK A01 T00661016  RH  056%=      5-min Rain = 0
KEA1 131448Z 26015KT 07/M02 A2998 RMK A01 T00671016  RH  056%=      5-min Rain = 0
KEA1 131449Z 27015KT 07/M02 A2998 RMK A01 T00671016  RH  055%=      5-min Rain = 0
KEA1 131450Z 27012KT 07/M02 A2998 RMK A01 T00681015  RH  055%=      5-min Rain = 0
KEA1 131451Z 27013KT 07/M02 A2998 RMK A01 T00691015  RH  055%=      5-min Rain = 0
KEA1 131452Z 26011KT 07/M01 A2999 RMK A01 T00701014  RH  055%=      5-min Rain = 0
KEA1 131453Z 27014KT 07/M01 A2999 RMK A01 T00701014  RH  055%=      5-min Rain = 0
KEA1 131454Z 27013KT 07/M02 A2999 RMK A01 T00701015  RH  055%=      5-min Rain = 0
KEA1 131455Z 27013KT 07/M02 A2999 RMK A01 T00691015  RH  055%=      5-min Rain = 0
KEA1 131456Z 27014KT 07/M02 A2999 RMK A01 T00691015  RH  055%=      5-min Rain = 0
KEA1 131457Z 27013KT 07/M01 A2999 RMK A01 T00691014  RH  055%=      5-min Rain = 0
KEA1 131458Z 27015KT 07/M01 A2999 RMK A01 T00691014  RH  055%=      5-min Rain = 0
KEA1 131459Z 26014KT 07/M02 A2998 RMK A01 T00701015  RH  055%=      5-min Rain = 0
KEA1 131500Z 26012KT 07/M02 A2998 RMK A01 T00711015  RH  055%=      5-min Rain = 0
KEA1 131501Z 26013KT 07/M01 A2998 RMK A01 T00711014  RH  055%=      5-min Rain = 0
KEA1 131502Z 27013KT 07/M01 A2998 RMK A01 T00721014  RH  054%=      5-min Rain = 0
KEA1 131503Z 26013KT 07/M01 A2998 RMK A01 T00731014  RH  054%=      5-min Rain = 0
KEA1 131504Z 26014KT 07/M01 A2998 RMK A01 T00731013  RH  054%=      5-min Rain = 0
KEA1 131505Z 26013KT 07/M01 A2998 RMK A01 T00741014  RH  054%=      5-min Rain = 0
KEA1 131506Z 26016KT 08/M01 A2998 RMK A01 T00751013  RH  054%=      5-min Rain = 0
KEA1 131507Z 26015KT 08/M01 A2998 RMK A01 T00751014  RH  053%=      5-min Rain = 0
KEA1 131508Z 27015KT 07/M01 A2999 RMK A01 T00741014  RH  053%=      5-min Rain = 0
KEA1 131509Z 27013KT 07/M01 A2999 RMK A01 T00741013  RH  054%=      5-min Rain = 0
KEA1 131510Z 26016KT 08/M01 A2999 RMK A01 T00751013  RH  054%=      5-min Rain = 0
KEA1 131511Z 27015KT 08/M01 A2999 RMK A01 T00761013  RH  053%=      5-min Rain = 0
KEA1 131512Z 27015KT 08/M01 A2999 RMK A01 T00761013  RH  053%=      5-min Rain = 0
KEA1 131513Z 26016KT 08/M01 A2999 RMK A01 T00771013  RH  053%=      5-min Rain = 0
KEA1 131514Z 26013KT 08/M01 A2999 RMK A01 T00781012  RH  053%=      5-min Rain = 0
KEA1 131515Z 26014KT 08/M01 A2999 RMK A01 T00801011  RH  053%=      5-min Rain = 0
KEA1 131516Z 27013KT 08/M01 A2999 RMK A01 T00801012  RH  052%=      5-min Rain = 0
KEA1 131517Z 27015KT 08/M01 A2999 RMK A01 T00781012  RH  053%=      5-min Rain = 0
KEA1 131518Z 27015KT 08/M01 A2999 RMK A01 T00781013  RH  053%=      5-min Rain = 0
KEA1 131519Z 26013KT 08/M01 A2999 RMK A01 T00771013  RH  053%=      5-min Rain = 0
KEA1 131520Z 26014KT 08/M01 A2999 RMK A01 T00771012  RH  053%=      5-min Rain = 0
KEA1 131521Z 26014KT 08/M01 A2999 RMK A01 T00781011  RH  053%=      5-min Rain = 0
KEA1 131522Z 27015KT 08/M01 A2998 RMK A01 T00801011  RH  053%=      5-min Rain = 0
KEA1 131523Z 26015KT 08/M01 A2998 RMK A01 T00811011  RH  052%=      5-min Rain = 0
KEA1 131524Z 27013KT 08/M01 A2999 RMK A01 T00821011  RH  052%=      5-min Rain = 0
KEA1 131525Z 27013KT 08/M01 A2999 RMK A01 T00831010  RH  052%=      5-min Rain = 0
KEA1 131526Z 27013KT 08/M01 A2999 RMK A01 T00841009  RH  052%=      5-min Rain = 0
KEA1 131527Z 26012KT 09/M01 A2999 RMK A01 T00871009  RH  051%=      5-min Rain = 0
KEA1 131528Z 27014KT 09/M01 A2998 RMK A01 T00891008  RH  051%=      5-min Rain = 0
KEA1 131529Z 26014KT 09/M01 A2998 RMK A01 T00891010  RH  050%=      5-min Rain = 0
KEA1 131530Z 26013KT 09/M01 A2998 RMK A01 T00901009  RH  050%=      5-min Rain = 0
KEA1 131531Z 27015KT 09/M01 A2999 RMK A01 T00921009  RH  049%=      5-min Rain = 0
KEA1 131532Z 26015KT 09/M01 A2999 RMK A01 T00921010  RH  049%=      5-min Rain = 0
KEA1 131533Z 27015KT 09/M01 A2999 RMK A01 T00931009  RH  049%=      5-min Rain = 0
KEA1 131534Z 27016KT 09/M01 A2999 RMK A01 T00941010  RH  048%=      5-min Rain = 0
KEA1 131535Z 26015KT 10/M01 A2999 RMK A01 T00951009  RH  048%=      5-min Rain = 0
KEA1 131536Z 27015KT 10/M01 A2999 RMK A01 T00961009  RH  048%=      5-min Rain = 0
KEA1 131537Z 27015KT 10/M01 A2999 RMK A01 T00971009  RH  048%=      5-min Rain = 0
KEA1 131538Z 26015KT 10/M01 A2999 RMK A01 T00981009  RH  047%=      5-min Rain = 0
KEA1 131539Z 27014KT 10/M01 A2999 RMK A01 T01001008  RH  047%=      5-min Rain = 0
KEA1 131540Z 26014KT 10/M01 A2999 RMK A01 T01021007  RH  047%=      5-min Rain = 0
KEA1 131541Z 26016KT 10/M01 A2999 RMK A01 T01041006  RH  046%=      5-min Rain = 0
KEA1 131542Z 26017KT 10/M01 A2999 RMK A01 T01041009  RH  045%=      5-min Rain = 0
KEA1 131543Z 26017KT 10/M01 A2998 RMK A01 T01041010  RH  045%=      5-min Rain = 0
KEA1 131544Z 26018KT 10/M01 A2999 RMK A01 T01041009  RH  045%=      5-min Rain = 0
KEA1 131545Z 26017KT 10/M01 A2999 RMK A01 T01031010  RH  045%=      5-min Rain = 0
KEA1 131546Z 27017KT 10/M01 A2999 RMK A01 T01031010  RH  045%=      5-min Rain = 0
KEA1 131547Z 27016KT 10/M01 A2999 RMK A01 T01031009  RH  046%=      5-min Rain = 0
KEA1 131548Z 27016KT 10/M01 A2999 RMK A01 T01041009  RH  045%=      5-min Rain = 0
KEA1 131549Z 27017KT 11/M01 A2998 RMK A01 T01051009  RH  045%=      5-min Rain = 0
KEA1 131550Z 27016KT 11/M01 A2998 RMK A01 T01051010  RH  045%=      5-min Rain = 0
KEA1 131551Z 26016KT 11/M01 A2998 RMK A01 T01051009  RH  045%=      5-min Rain = 0
KEA1 131552Z 27013KT 11/M01 A2998 RMK A01 T01061008  RH  045%=      5-min Rain = 0
KEA1 131553Z 27016KT 11/M01 A2998 RMK A01 T01071008  RH  045%=      5-min Rain = 0
KEA1 131554Z 27016KT 11/M01 A2998 RMK A01 T01071008  RH  045%=      5-min Rain = 0
KEA1 131555Z 27016KT 11/M01 A2998 RMK A01 T01091007  RH  045%=      5-min Rain = 0
KEA1 131556Z 27015KT 11/M01 A2998 RMK A01 T01091007  RH  044%=      5-min Rain = 0
KEA1 131557Z 27014KT 11/M01 A2998 RMK A01 T01101006  RH  045%=      5-min Rain = 0
KEA1 131558Z 27014KT 11/M01 A2998 RMK A01 T01121005  RH  044%=      5-min Rain = 0
KEA1 131559Z 27013KT 11/M01 A2998 RMK A01 T01131005  RH  044%=      5-min Rain = 0
KEA1 131600Z 26016KT 12/M01 A2998 RMK A01 T01151005  RH  044%=      5-min Rain = 0
KEA1 131601Z 27017KT 11/M01 A2998 RMK A01 T01141007  RH  043%=      5-min Rain = 0
KEA1 131602Z 27016KT 11/M01 A2998 RMK A01 T01141007  RH  043%=      5-min Rain = 0
KEA1 131603Z 27013KT 11/M01 A2998 RMK A01 T01141005  RH  044%=      5-min Rain = 0
KEA1 131604Z 26014KT 12/M01 A2997 RMK A01 T01161005  RH  043%=      5-min Rain = 0
KEA1 131605Z 27016KT 12/M01 A2997 RMK A01 T01161006  RH  043%=      5-min Rain = 0
KEA1 131606Z 27015KT 12/M01 A2997 RMK A01 T01171005  RH  043%=      5-min Rain = 0
KEA1 131607Z 27017KT 12/M01 A2997 RMK A01 T01171005  RH  043%=      5-min Rain = 0
KEA1 131608Z 26017KT 12/M01 A2997 RMK A01 T01181006  RH  042%=      5-min Rain = 0
KEA1 131609Z 27017KT 12/M01 A2998 RMK A01 T01181006  RH  042%=      5-min Rain = 0
KEA1 131610Z 27016KT 12/M01 A2998 RMK A01 T01191005  RH  042%=      5-min Rain = 0
KEA1 131611Z 27018KT 12/M01 A2998 RMK A01 T01201005  RH  042%=      5-min Rain = 0
KEA1 131612Z 27017KT 12/M01 A2998 RMK A01 T01201006  RH  042%=      5-min Rain = 0
KEA1 131613Z 27017KT 12/M01 A2998 RMK A01 T01201006  RH  042%=      5-min Rain = 0
KEA1 131614Z 28015KT 12/M00 A2998 RMK A01 T01201004  RH  042%=      5-min Rain = 0
KEA1 131615Z 27015KT 12/M00 A2998 RMK A01 T01211004  RH  042%=      5-min Rain = 0
KEA1 131616Z 27016KT 12/M00 A2998 RMK A01 T01221003  RH  042%=      5-min Rain = 0
KEA1 131617Z 27017KT 12/M00 A2998 RMK A01 T01231003  RH  042%=      5-min Rain = 0
KEA1 131618Z 27017G22KT 12/M00 A2998 RMK A01 T01231004  RH  041%=      5-min Rain = 0
KEA1 131619Z 27017G22KT 12/M01 A2997 RMK A01 T01231005  RH  041%=      5-min Rain = 0
KEA1 131620Z 27020G25KT 12/M00 A2997 RMK A01 T01241004  RH  041%=      5-min Rain = 0
KEA1 131621Z 27021KT 12/M01 A2998 RMK A01 T01241006  RH  041%=      5-min Rain = 0
KEA1 131622Z 27020KT 12/M01 A2998 RMK A01 T01231006  RH  041%=      5-min Rain = 0
KEA1 131623Z 27019KT 12/M01 A2998 RMK A01 T01231006  RH  041%=      5-min Rain = 0
KEA1 131624Z 27018KT 12/M00 A2998 RMK A01 T01231004  RH  041%=      5-min Rain = 0
KEA1 131625Z 27018KT 13/M00 A2998 RMK A01 T01251003  RH  041%=      5-min Rain = 0
KEA1 131626Z 27019KT 13/M00 A2998 RMK A01 T01261004  RH  041%=      5-min Rain = 0
KEA1 131627Z 27015KT 13/M00 A2998 RMK A01 T01271003  RH  041%=      5-min Rain = 0
KEA1 131628Z 27020KT 13/M00 A2998 RMK A01 T01301002  RH  040%=      5-min Rain = 0
KEA1 131629Z 26019G24KT 13/M00 A2998 RMK A01 T01301004  RH  040%=      5-min Rain = 0
KEA1 131630Z 27019KT 13/M01 A2998 RMK A01 T01301005  RH  039%=      5-min Rain = 0
KEA1 131631Z 28017KT 13/M00 A2998 RMK A01 T01311003  RH  040%=      5-min Rain = 0
KEA1 131632Z 27020G25KT 13/M00 A2998 RMK A01 T01321003  RH  040%=      5-min Rain = 0
KEA1 131633Z 27018KT 13/M00 A2998 RMK A01 T01321004  RH  039%=      5-min Rain = 0
KEA1 131634Z 27019KT 13/M00 A2998 RMK A01 T01321004  RH  039%=      5-min Rain = 0
KEA1 131635Z 27020KT 13/M00 A2998 RMK A01 T01321004  RH  039%=      5-min Rain = 0
KEA1 131636Z 27017KT 13/M00 A2998 RMK A01 T01331003  RH  039%=      5-min Rain = 0
KEA1 131637Z 27020KT 13/M00 A2998 RMK A01 T01331003  RH  039%=      5-min Rain = 0
KEA1 131638Z 27020G25KT 13/M00 A2998 RMK A01 T01331003  RH  039%=      5-min Rain = 0
KEA1 131639Z 27019KT 13/M00 A2998 RMK A01 T01341003  RH  039%=      5-min Rain = 0
KEA1 131640Z 27019KT 13/M00 A2998 RMK A01 T01341003  RH  039%=      5-min Rain = 0
KEA1 131641Z 27021KT 14/M00 A2998 RMK A01 T01351003  RH  039%=      5-min Rain = 0
KEA1 131642Z 27016G21KT 13/M00 A2998 RMK A01 T01341003  RH  039%=      5-min Rain = 0
KEA1 131643Z 28017KT 14/00 A2998 RMK A01 T01380001  RH  039%=      5-min Rain = 0
KEA1 131644Z 28021KT 14/M00 A2998 RMK A01 T01391001  RH  038%=      5-min Rain = 0
KEA1 131645Z 28020KT 14/M00 A2998 RMK A01 T01381002  RH  038%=      5-min Rain = 0
KEA1 131646Z 28018KT 14/M00 A2998 RMK A01 T01371002  RH  038%=      5-min Rain = 0
KEA1 131647Z 28018KT 14/M00 A2998 RMK A01 T01371001  RH  039%=      5-min Rain = 0
KEA1 131648Z 28018G23KT 14/00 A2998 RMK A01 T01390000  RH  039%=      5-min Rain = 0
KEA1 131649Z 27019KT 14/00 A2999 RMK A01 T01400001  RH  038%=      5-min Rain = 0
KEA1 131650Z 27019G24KT 14/00 A2999 RMK A01 T014200-0  RH  038%=      5-min Rain = 0
KEA1 131651Z 27019KT 14/M00 A2999 RMK A01 T01421001  RH  038%=      5-min Rain = 0
KEA1 131652Z 27020KT 14/00 A2998 RMK A01 T01420000  RH  038%=      5-min Rain = 0
KEA1 131653Z 27021G26KT 14/00 A2998 RMK A01 T014200-0  RH  038%=      5-min Rain = 0
KEA1 131654Z 27022KT 14/M00 A2998 RMK A01 T01421002  RH  037%=      5-min Rain = 0
KEA1 131655Z 27022KT 14/M00 A2998 RMK A01 T01421001  RH  037%=      5-min Rain = 0
KEA1 131656Z 26020G26KT 14/M00 A2998 RMK A01 T01421001  RH  037%=      5-min Rain = 0
KEA1 131657Z 27024KT 14/M00 A2998 RMK A01 T01421003  RH  037%=      5-min Rain = 0
KEA1 131658Z 27021G26KT 14/M00 A2999 RMK A01 T01411002  RH  037%=      5-min Rain = 0
KEA1 131659Z 27023KT 14/M00 A2999 RMK A01 T01411002  RH  037%=      5-min Rain = 0
KEA1 131700Z 27020G26KT 14/M00 A2999 RMK A01 T01421002  RH  037%=      5-min Rain = 0
KEA1 131701Z 27022KT 14/M00 A2999 RMK A01 T01431001  RH  037%=      5-min Rain = 0
KEA1 131702Z 27022G27KT 14/M00 A2998 RMK A01 T01441001  RH  037%=      5-min Rain = 0
KEA1 131703Z 27018G23KT 14/M00 A2998 RMK A01 T01431002  RH  037%=      5-min Rain = 0
KEA1 131704Z 27022KT 15/00 A2998 RMK A01 T01450000  RH  037%=      5-min Rain = 0
KEA1 131705Z 26020KT 14/M00 A2998 RMK A01 T01441002  RH  037%=      5-min Rain = 0
KEA1 131706Z 27022G27KT 15/M00 A2998 RMK A01 T01451001  RH  037%=      5-min Rain = 0
KEA1 131707Z 27023KT 15/M00 A2998 RMK A01 T01451002  RH  037%=      5-min Rain = 0
KEA1 131708Z 27022KT 15/M00 A2998 RMK A01 T01451003  RH  036%=      5-min Rain = 0
KEA1 131709Z 27022KT 15/M00 A2998 RMK A01 T01451002  RH  037%=      5-min Rain = 0
KEA1 131710Z 27020KT 14/M00 A2998 RMK A01 T01441002  RH  037%=      5-min Rain = 0
KEA1 131711Z 27021G26KT 15/00 A2998 RMK A01 T01460000  RH  037%=      5-min Rain = 0
KEA1 131712Z 26021KT 15/M00 A2998 RMK A01 T01471002  RH  036%=      5-min Rain = 0
KEA1 131713Z 26022G27KT 15/M00 A2998 RMK A01 T01461003  RH  036%=      5-min Rain = 0
KEA1 131714Z 27020KT 15/M00 A2998 RMK A01 T01471001  RH  036%=      5-min Rain = 0
KEA1 131715Z 27022KT 15/M00 A2997 RMK A01 T01481001  RH  036%=      5-min Rain = 0
KEA1 131716Z 28021KT 15/M00 A2997 RMK A01 T01471001  RH  036%=      5-min Rain = 0
KEA1 131717Z 27019KT 15/M00 A2997 RMK A01 T01481001  RH  036%=      5-min Rain = 0
KEA1 131718Z 27023G28KT 15/00 A2997 RMK A01 T014900-0  RH  036%=      5-min Rain = 0
KEA1 131719Z 27022KT 15/M00 A2997 RMK A01 T01491002  RH  036%=      5-min Rain = 0
KEA1 131720Z 27019KT 15/M00 A2997 RMK A01 T01491001  RH  036%=      5-min Rain = 0
KEA1 131721Z 27019G24KT 15/M00 A2997 RMK A01 T01501001  RH  036%=      5-min Rain = 0
KEA1 131722Z 27020KT 15/00 A2997 RMK A01 T01510000  RH  036%=      5-min Rain = 0
KEA1 131723Z 26020KT 15/M00 A2997 RMK A01 T01501001  RH  036%=      5-min Rain = 0
KEA1 131724Z 26021KT 15/M00 A2997 RMK A01 T01501001  RH  036%=      5-min Rain = 0
KEA1 131725Z 26022KT 15/M00 A2997 RMK A01 T01511001  RH  035%=      5-min Rain = 0
KEA1 131726Z 26022KT 15/M00 A2997 RMK A01 T01501002  RH  035%=      5-min Rain = 0
KEA1 131727Z 26021KT 15/M00 A2997 RMK A01 T01501001  RH  035%=      5-min Rain = 0
KEA1 131728Z 26023KT 15/M00 A2997 RMK A01 T01501001  RH  035%=      5-min Rain = 0
KEA1 131729Z 26022KT 15/M00 A2997 RMK A01 T01511001  RH  035%=      5-min Rain = 0
KEA1 131730Z 26023KT 15/M00 A2996 RMK A01 T01511001  RH  035%=      5-min Rain = 0
KEA1 131731Z 26023KT 15/M00 A2996 RMK A01 T01511002  RH  035%=      5-min Rain = 0
KEA1 131732Z 26022KT 15/M00 A2996 RMK A01 T01501001  RH  035%=      5-min Rain = 0
KEA1 131733Z 26022KT 15/M00 A2996 RMK A01 T01521001  RH  035%=      5-min Rain = 0
KEA1 131734Z 27018KT 15/M00 A2996 RMK A01 T01531001  RH  035%=      5-min Rain = 0
KEA1 131735Z 27020G25KT 16/00 A2996 RMK A01 T01570003  RH  035%=      5-min Rain = 0
KEA1 131736Z 27021KT 16/00 A2996 RMK A01 T01590000  RH  034%=      5-min Rain = 0
KEA1 131737Z 26018G23KT 16/00 A2996 RMK A01 T01580001  RH  034%=      5-min Rain = 0
KEA1 131738Z 27018KT 16/00 A2996 RMK A01 T01600001  RH  034%=      5-min Rain = 0
KEA1 131739Z 27020G25KT 16/00 A2996 RMK A01 T01600001  RH  034%=      5-min Rain = 0
KEA1 131740Z 27021KT 16/00 A2996 RMK A01 T01600000  RH  034%=      5-min Rain = 0
KEA1 131741Z 27020KT 16/00 A2996 RMK A01 T015900-0  RH  034%=      5-min Rain = 0
KEA1 131742Z 27020KT 16/00 A2996 RMK A01 T01590000  RH  034%=      5-min Rain = 0
KEA1 131743Z 28021KT 16/00 A2996 RMK A01 T01590000  RH  034%=      5-min Rain = 0
KEA1 131744Z 27019KT 16/M00 A2996 RMK A01 T01581001  RH  034%=      5-min Rain = 0
KEA1 131745Z 26021KT 16/00 A2996 RMK A01 T015800-0  RH  034%=      5-min Rain = 0
KEA1 131746Z 27020KT 16/00 A2996 RMK A01 T01580000  RH  034%=      5-min Rain = 0
KEA1 131747Z 27021KT 16/00 A2996 RMK A01 T01590001  RH  034%=      5-min Rain = 0
KEA1 131748Z 26020KT 16/00 A2996 RMK A01 T01590001  RH  034%=      5-min Rain = 0
KEA1 131749Z 27021KT 16/00 A2996 RMK A01 T01590000  RH  034%=      5-min Rain = 0
KEA1 131750Z 27020KT 16/00 A2996 RMK A01 T01580001  RH  034%=      5-min Rain = 0
KEA1 131751Z 26020KT 16/00 A2996 RMK A01 T01590002  RH  034%=      5-min Rain = 0
KEA1 131752Z 26019G25KT 16/00 A2996 RMK A01 T01600002  RH  034%=      5-min Rain = 0
KEA1 131753Z 26016KT 16/00 A2996 RMK A01 T01610004  RH  034%=      5-min Rain = 0
KEA1 131754Z 26020KT 16/00 A2996 RMK A01 T01630004  RH  034%=      5-min Rain = 0
KEA1 131755Z 27017KT 16/00 A2996 RMK A01 T01640003  RH  034%=      5-min Rain = 0
KEA1 131756Z 28020KT 17/00 A2996 RMK A01 T01650003  RH  033%=      5-min Rain = 0
KEA1 131757Z 27020G25KT 17/00 A2996 RMK A01 T01650002  RH  033%=      5-min Rain = 0
KEA1 131758Z 26018G24KT 17/00 A2996 RMK A01 T01660002  RH  033%=      5-min Rain = 0
KEA1 131759Z 27019KT 17/00 A2996 RMK A01 T01660001  RH  033%=      5-min Rain = 0
KEA1 131800Z 26019KT 17/00 A2996 RMK A01 T01660002  RH  033%=      5-min Rain = 0
KEA1 131801Z 27018KT 17/00 A2996 RMK A01 T01660002  RH  033%=      5-min Rain = 0
KEA1 131802Z 27019KT 17/00 A2996 RMK A01 T01680002  RH  032%=      5-min Rain = 0
KEA1 131803Z 26021G27KT 17/M00 A2996 RMK A01 T01701002  RH  031%=      5-min Rain = 0
KEA1 131804Z 27020G25KT 17/M00 A2996 RMK A01 T01691003  RH  031%=      5-min Rain = 0
KEA1 131805Z 27020KT 17/00 A2995 RMK A01 T01700001  RH  032%=      5-min Rain = 0
KEA1 131806Z 26019KT 17/00 A2995 RMK A01 T01700002  RH  032%=      5-min Rain = 0
KEA1 131807Z 27021KT 17/00 A2995 RMK A01 T01680001  RH  032%=      5-min Rain = 0
KEA1 131808Z 26021KT 17/00 A2995 RMK A01 T01680002  RH  032%=      5-min Rain = 0
KEA1 131809Z 26021KT 17/00 A2995 RMK A01 T016800-0  RH  032%=      5-min Rain = 0
KEA1 131810Z 25022G27KT 17/00 A2995 RMK A01 T01690002  RH  032%=      5-min Rain = 0
KEA1 131811Z 26023G29KT 17/00 A2995 RMK A01 T01690001  RH  032%=      5-min Rain = 0
KEA1 131812Z 27019KT 17/M00 A2995 RMK A01 T01701002  RH  031%=      5-min Rain = 0
KEA1 131813Z 27020KT 17/M00 A2994 RMK A01 T01701001  RH  031%=      5-min Rain = 0
KEA1 131814Z 27016KT 17/00 A2994 RMK A01 T01700001  RH  032%=      5-min Rain = 0
KEA1 131815Z 26021KT 17/00 A2994 RMK A01 T01730001  RH  031%=      5-min Rain = 0
KEA1 131816Z 26021KT 17/M00 A2994 RMK A01 T01721001  RH  031%=      5-min Rain = 0
KEA1 131817Z 26020KT 17/M00 A2995 RMK A01 T01701001  RH  031%=      5-min Rain = 0
KEA1 131818Z 26018G23KT 17/00 A2994 RMK A01 T01720002  RH  031%=      5-min Rain = 0
KEA1 131819Z 26023G28KT 17/00 A2995 RMK A01 T01740001  RH  031%=      5-min Rain = 0
KEA1 131820Z 26023G28KT 17/M00 A2994 RMK A01 T01731001  RH  031%=      5-min Rain = 0
KEA1 131821Z 26024KT 17/M00 A2994 RMK A01 T01731001  RH  031%=      5-min Rain = 0
KEA1 131822Z 26016KT 17/M00 A2994 RMK A01 T01731001  RH  031%=      5-min Rain = 0
KEA1 131823Z 26017G22KT 17/00 A2994 RMK A01 T017400-0  RH  031%=      5-min Rain = 0
KEA1 131824Z 26021KT 17/M00 A2994 RMK A01 T01741001  RH  031%=      5-min Rain = 0
KEA1 131825Z 26021G28KT 17/M00 A2994 RMK A01 T01701002  RH  031%=      5-min Rain = 0
KEA1 131826Z 27022KT 17/M00 A2994 RMK A01 T01691001  RH  032%=      5-min Rain = 0
KEA1 131827Z 26018G23KT 17/00 A2994 RMK A01 T016900-0  RH  032%=      5-min Rain = 0
KEA1 131828Z 26023KT 17/00 A2994 RMK A01 T01720002  RH  032%=      5-min Rain = 0
KEA1 131829Z 27020KT 17/M00 A2994 RMK A01 T01711001  RH  031%=      5-min Rain = 0
KEA1 131830Z 27016KT 17/M00 A2994 RMK A01 T01691001  RH  032%=      5-min Rain = 0
KEA1 131831Z 25018G23KT 17/00 A2994 RMK A01 T01690001  RH  032%=      5-min Rain = 0
KEA1 131832Z 26020KT 17/00 A2994 RMK A01 T01710001  RH  032%=      5-min Rain = 0
KEA1 131833Z 26018KT 17/00 A2993 RMK A01 T01720000  RH  031%=      5-min Rain = 0
KEA1 131834Z 26020KT 18/00 A2993 RMK A01 T01750000  RH  031%=      5-min Rain = 0
KEA1 131835Z 25018KT 18/00 A2993 RMK A01 T017500-0  RH  031%=      5-min Rain = 0
KEA1 131836Z 25020KT 18/00 A2993 RMK A01 T01750001  RH  031%=      5-min Rain = 0
KEA1 131837Z 25022KT 18/00 A2993 RMK A01 T01750001  RH  031%=      5-min Rain = 0
KEA1 131838Z 25019G24KT 18/00 A2993 RMK A01 T01770001  RH  030%=      5-min Rain = 0
KEA1 131839Z 25019KT 18/00 A2994 RMK A01 T01780001  RH  030%=      5-min Rain = 0
KEA1 131840Z 26021KT 18/00 A2994 RMK A01 T01790001  RH  030%=      5-min Rain = 0
KEA1 131841Z 26017KT 18/00 A2994 RMK A01 T017800-0  RH  030%=      5-min Rain = 0
KEA1 131842Z 27020G25KT 18/00 A2994 RMK A01 T01810002  RH  030%=      5-min Rain = 0
KEA1 131843Z 27020KT 18/M00 A2994 RMK A01 T01831001  RH  029%=      5-min Rain = 0
KEA1 131844Z 28017G23KT 18/M00 A2994 RMK A01 T01821002  RH  029%=      5-min Rain = 0
KEA1 131845Z 28017KT 18/M00 A2994 RMK A01 T01801001  RH  029%=      5-min Rain = 0
KEA1 131846Z 28015KT 18/M00 A2994 RMK A01 T01801002  RH  029%=      5-min Rain = 0
KEA1 131847Z 27019KT 18/00 A2994 RMK A01 T01800000  RH  030%=      5-min Rain = 0
KEA1 131848Z 27022KT 18/M00 A2994 RMK A01 T01821001  RH  029%=      5-min Rain = 0
KEA1 131849Z 28021KT 18/M00 A2994 RMK A01 T01811002  RH  029%=      5-min Rain = 0
KEA1 131850Z 27019G26KT 18/M00 A2994 RMK A01 T01811001  RH  029%=      5-min Rain = 0
KEA1 131851Z 27022KT 18/00 A2994 RMK A01 T018300-0  RH  029%=      5-min Rain = 0
KEA1 131852Z 27024KT 18/M00 A2994 RMK A01 T01831001  RH  029%=      5-min Rain = 0
KEA1 131853Z 28027KT 18/M00 A2994 RMK A01 T01821002  RH  029%=      5-min Rain = 0
KEA1 131854Z 28020G26KT 18/M00 A2994 RMK A01 T01811003  RH  029%=      5-min Rain = 0
KEA1 131855Z 27023G28KT 18/M00 A2994 RMK A01 T01831001  RH  029%=      5-min Rain = 0
KEA1 131856Z 27023G28KT 18/M00 A2994 RMK A01 T01831003  RH  029%=      5-min Rain = 0
KEA1 131857Z 28019G25KT 18/M00 A2994 RMK A01 T01821002  RH  029%=      5-min Rain = 0
KEA1 131858Z 29021KT 18/M00 A2994 RMK A01 T01831002  RH  029%=      5-min Rain = 0
KEA1 131859Z 28022G27KT 18/M00 A2994 RMK A01 T01841002  RH  028%=      5-min Rain = 0
KEA1 131900Z 27021G27KT 18/M00 A2994 RMK A01 T01841004  RH  028%=      5-min Rain = 0
KEA1 131901Z 27022KT 18/M00 A2994 RMK A01 T01841004  RH  028%=      5-min Rain = 0
KEA1 131902Z 27019G25KT 18/M01 A2993 RMK A01 T01821006  RH  028%=      5-min Rain = 0
KEA1 131903Z 28021KT 18/M01 A2993 RMK A01 T01831005  RH  028%=      5-min Rain = 0
KEA1 131904Z 28024KT 18/M01 A2993 RMK A01 T01831006  RH  028%=      5-min Rain = 0
KEA1 131905Z 28020G27KT 18/M01 A2993 RMK A01 T01831007  RH  028%=      5-min Rain = 0
KEA1 131906Z 26020G25KT 18/M01 A2993 RMK A01 T01841007  RH  027%=      5-min Rain = 0
KEA1 131907Z 27020G26KT 19/M01 A2993 RMK A01 T01861008  RH  027%=      5-min Rain = 0
KEA1 131908Z 28022KT 19/M01 A2993 RMK A01 T01881005  RH  027%=      5-min Rain = 0
KEA1 131909Z 28019G24KT 19/M01 A2993 RMK A01 T01861006  RH  027%=      5-min Rain = 0
KEA1 131910Z 27022KT 19/M01 A2993 RMK A01 T01851005  RH  028%=      5-min Rain = 0
KEA1 131911Z 27021KT 18/M01 A2993 RMK A01 T01841007  RH  028%=      5-min Rain = 0
KEA1 131912Z 28018KT 18/M01 A2993 RMK A01 T01831008  RH  028%=      5-min Rain = 0
KEA1 131913Z 27020KT 18/M01 A2992 RMK A01 T01831007  RH  028%=      5-min Rain = 0
KEA1 131914Z 28021KT 18/M01 A2992 RMK A01 T01811009  RH  028%=      5-min Rain = 0
KEA1 131915Z 27022KT 18/M01 A2992 RMK A01 T01801011  RH  027%=      5-min Rain = 0
KEA1 131916Z 28023G30KT 18/M01 A2992 RMK A01 T01821011  RH  027%=      5-min Rain = 0
KEA1 131917Z 28023KT 18/M01 A2992 RMK A01 T01831013  RH  026%=      5-min Rain = 0
KEA1 131918Z 28022G29KT 18/M01 A2992 RMK A01 T01841011  RH  027%=      5-min Rain = 0
KEA1 131919Z 29017KT 19/M01 A2992 RMK A01 T01871010  RH  026%=      5-min Rain = 0
KEA1 131920Z 29019KT 19/M01 A2992 RMK A01 T01901012  RH  026%=      5-min Rain = 0
KEA1 131921Z 29021KT 19/M01 A2992 RMK A01 T01901014  RH  025%=      5-min Rain = 0
KEA1 131922Z 30022KT 19/M01 A2992 RMK A01 T01861014  RH  026%=      5-min Rain = 0
KEA1 131923Z 29018KT 18/M01 A2992 RMK A01 T01831012  RH  027%=      5-min Rain = 0
KEA1 131924Z 28017G23KT 18/M01 A2991 RMK A01 T01831010  RH  027%=      5-min Rain = 0
KEA1 131925Z 29015G20KT 18/M01 A2991 RMK A01 T01841007  RH  027%=      5-min Rain = 0
KEA1 131926Z 29017G23KT 19/M00 A2992 RMK A01 T01881004  RH  027%=      5-min Rain = 0
KEA1 131927Z 30020KT 19/M01 A2992 RMK A01 T01901007  RH  027%=      5-min Rain = 0
KEA1 131928Z 30024G29KT 19/M02 A2992 RMK A01 T01891015  RH  025%=      5-min Rain = 0
KEA1 131929Z 29022KT 19/M02 A2992 RMK A01 T01861020  RH  025%=      5-min Rain = 0
KEA1 131930Z 29018KT 19/M02 A2991 RMK A01 T01851017  RH  025%=      5-min Rain = 0
KEA1 131931Z 29022KT 19/M01 A2991 RMK A01 T01871012  RH  026%=      5-min Rain = 0
KEA1 131932Z 29024KT 19/M02 A2991 RMK A01 T01861015  RH  026%=      5-min Rain = 0
KEA1 131933Z 28023KT 19/M02 A2991 RMK A01 T01851015  RH  026%=      5-min Rain = 0
KEA1 131934Z 30020KT 18/M02 A2991 RMK A01 T01841015  RH  026%=      5-min Rain = 0
KEA1 131935Z 30018KT 19/M02 A2991 RMK A01 T01851015  RH  026%=      5-min Rain = 0
KEA1 131936Z 29017KT 19/M02 A2991 RMK A01 T01861015  RH  026%=      5-min Rain = 0
KEA1 131937Z 31018G23KT 19/M01 A2991 RMK A01 T01871013  RH  026%=      5-min Rain = 0
KEA1 131938Z 29017KT 19/M01 A2991 RMK A01 T01891012  RH  026%=      5-min Rain = 0
KEA1 131939Z 29019KT 19/M01 A299 RMK A01 T01901012  RH  025%=      5-min Rain = 0
KEA1 131940Z 28021G26KT 19/M02 A299 RMK A01 T01891015  RH  025%=      5-min Rain = 0
KEA1 131941Z 28021KT 19/M02 A299 RMK A01 T01891017  RH  025%=      5-min Rain = 0
KEA1 131942Z 29021KT 19/M02 A299 RMK A01 T01871019  RH  025%=      5-min Rain = 0
KEA1 131943Z 29019KT 19/M02 A299 RMK A01 T01861017  RH  025%=      5-min Rain = 0
KEA1 131944Z 29020KT 19/M02 A299 RMK A01 T01861016  RH  025%=      5-min Rain = 0
KEA1 131945Z 29021G26KT 19/M02 A299 RMK A01 T01871017  RH  025%=      5-min Rain = 0
KEA1 131946Z 29024KT 19/M02 A299 RMK A01 T01871021  RH  024%=      5-min Rain = 0
KEA1 131947Z 30023G28KT 19/M02 A299 RMK A01 T01861021  RH  025%=      5-min Rain = 0
KEA1 131948Z 29024KT 19/M02 A299 RMK A01 T01851021  RH  025%=      5-min Rain = 0
KEA1 131949Z 29022KT 18/M02 A299 RMK A01 T01841021  RH  025%=      5-min Rain = 0
KEA1 131950Z 28022KT 18/M02 A299 RMK A01 T01841019  RH  025%=      5-min Rain = 0
KEA1 131951Z 28022G29KT 19/M02 A299 RMK A01 T01851020  RH  025%=      5-min Rain = 0
KEA1 131952Z 30022KT 18/M02 A299 RMK A01 T01841021  RH  025%=      5-min Rain = 0
KEA1 131953Z 30021KT 18/M02 A299 RMK A01 T01831021  RH  025%=      5-min Rain = 0
KEA1 131954Z 30018KT 18/M02 A299 RMK A01 T01831019  RH  025%=      5-min Rain = 0
KEA1 131955Z 30019KT 18/M02 A299 RMK A01 T01841019  RH  025%=      5-min Rain = 0
KEA1 131956Z 30017KT 19/M02 A299 RMK A01 T01851016  RH  025%=      5-min Rain = 0
KEA1 131957Z 30021G27KT 19/M02 A299 RMK A01 T01881015  RH  025%=      5-min Rain = 0
KEA1 131958Z 29020KT 19/M02 A299 RMK A01 T01871018  RH  025%=      5-min Rain = 0
KEA1 131959Z 30017KT 19/M02 A299 RMK A01 T01871020  RH  025%=      5-min Rain = 0
KEA1 132000Z 31018G24KT 19/M02 A299 RMK A01 T01891019  RH  024%=      5-min Rain = 0
KEA1 132001Z 31021KT 19/M02 A299 RMK A01 T01901019  RH  024%=      5-min Rain = 0
KEA1 132002Z 31019KT 19/M02 A299 RMK A01 T01891017  RH  025%=      5-min Rain = 0
KEA1 132003Z 30018G23KT 19/M02 A299 RMK A01 T01901015  RH  025%=      5-min Rain = 0
KEA1 132004Z 29018KT 19/M02 A299 RMK A01 T01901018  RH  024%=      5-min Rain = 0
KEA1 132005Z 30018KT 19/M02 A299 RMK A01 T01901016  RH  025%=      5-min Rain = 0
KEA1 132006Z 30018KT 19/M02 A299 RMK A01 T01891016  RH  025%=      5-min Rain = 0
KEA1 132007Z 30018KT 19/M02 A299 RMK A01 T01901016  RH  025%=      5-min Rain = 0
KEA1 132008Z 30018KT 19/M02 A299 RMK A01 T01901015  RH  025%=      5-min Rain = 0
KEA1 132009Z 30018KT 19/M01 A299 RMK A01 T01911013  RH  025%=      5-min Rain = 0
KEA1 132010Z 29021KT 19/M01 A299 RMK A01 T01901013  RH  025%=      5-min Rain = 0
KEA1 132011Z 29021KT 19/M02 A299 RMK A01 T01891017  RH  025%=      5-min Rain = 0
KEA1 132012Z 30018G25KT 19/M02 A299 RMK A01 T01871017  RH  025%=      5-min Rain = 0
KEA1 132013Z 30020G25KT 19/M02 A299 RMK A01 T01871017  RH  025%=      5-min Rain = 0
KEA1 132014Z 31020G26KT 19/M02 A299 RMK A01 T01861017  RH  025%=      5-min Rain = 0
KEA1 132015Z 31021KT 19/M02 A299 RMK A01 T01861017  RH  025%=      5-min Rain = 0
KEA1 132016Z 30018KT 19/M02 A299 RMK A01 T01861017  RH  025%=      5-min Rain = 0
KEA1 132017Z 30017KT 19/M02 A299 RMK A01 T01861016  RH  025%=      5-min Rain = 0
KEA1 132018Z 30016G22KT 19/M02 A299 RMK A01 T01871015  RH  025%=      5-min Rain = 0
KEA1 132019Z 29022G28KT 19/M02 A299 RMK A01 T01881017  RH  025%=      5-min Rain = 0
KEA1 132020Z 29020KT 19/M02 A299 RMK A01 T01861018  RH  025%=      5-min Rain = 0
KEA1 132021Z 30017G22KT 19/M02 A2989 RMK A01 T01861017  RH  025%=      5-min Rain = 0
KEA1 132022Z 29021KT 19/M02 A2989 RMK A01 T01871016  RH  025%=      5-min Rain = 0
KEA1 132023Z 29015G20KT 19/M02 A2989 RMK A01 T01881015  RH  025%=      5-min Rain = 0
KEA1 132024Z 29021KT 19/M01 A2989 RMK A01 T01901014  RH  025%=      5-min Rain = 0
KEA1 132025Z 29020KT 19/M02 A2989 RMK A01 T01891017  RH  025%=      5-min Rain = 0
KEA1 132026Z 29019KT 19/M02 A2989 RMK A01 T01871017  RH  025%=      5-min Rain = 0
KEA1 132027Z 30019KT 19/M02 A2989 RMK A01 T01871017  RH  025%=      5-min Rain = 0
KEA1 132028Z 29018KT 19/M02 A2989 RMK A01 T01871016  RH  025%=      5-min Rain = 0
KEA1 132029Z 30018KT 19/M02 A2989 RMK A01 T01871016  RH  025%=      5-min Rain = 0
KEA1 132030Z 30016G21KT 19/M02 A2989 RMK A01 T01871015  RH  025%=      5-min Rain = 0
KEA1 132031Z 29013KT 19/M01 A2989 RMK A01 T01881014  RH  025%=      5-min Rain = 0
KEA1 132032Z 29015G20KT 19/M01 A2989 RMK A01 T01901013  RH  025%=      5-min Rain = 0
KEA1 132033Z 29019KT 19/M01 A2989 RMK A01 T01921013  RH  025%=      5-min Rain = 0
KEA1 132034Z 28018KT 19/M02 A2989 RMK A01 T01921019  RH  024%=      5-min Rain = 0
KEA1 132035Z 29018KT 19/M02 A299 RMK A01 T01911018  RH  024%=      5-min Rain = 0
KEA1 132036Z 30018KT 19/M02 A299 RMK A01 T01921017  RH  024%=      5-min Rain = 0
KEA1 132037Z 29017G22KT 19/M02 A299 RMK A01 T01911016  RH  025%=      5-min Rain = 0
KEA1 132038Z 29019KT 19/M02 A2989 RMK A01 T01901016  RH  025%=      5-min Rain = 0
KEA1 132039Z 30017KT 19/M02 A2989 RMK A01 T01891017  RH  025%=      5-min Rain = 0
KEA1 132040Z 30018G25KT 19/M02 A2989 RMK A01 T01891018  RH  025%=      5-min Rain = 0
KEA1 132041Z 29013KT 19/M02 A2989 RMK A01 T01901015  RH  025%=      5-min Rain = 0
KEA1 132042Z 28015KT 19/M01 A2989 RMK A01 T01921014  RH  025%=      5-min Rain = 0
KEA1 132043Z 29016KT 19/M02 A2989 RMK A01 T01911016  RH  025%=      5-min Rain = 0
KEA1 132044Z 28013KT 19/M01 A2989 RMK A01 T01911014  RH  025%=      5-min Rain = 0
KEA1 132045Z 30014G21KT 19/M01 A2989 RMK A01 T01921012  RH  025%=      5-min Rain = 0
KEA1 132046Z 30015KT 19/M01 A2989 RMK A01 T01931014  RH  025%=      5-min Rain = 0
KEA1 132047Z 30013KT 19/M02 A2989 RMK A01 T01921015  RH  025%=      5-min Rain = 0
KEA1 132048Z 31013G19KT 19/M01 A2989 RMK A01 T01931014  RH  025%=      5-min Rain = 0
KEA1 132049Z 30018KT 19/M02 A2989 RMK A01 T01941016  RH  024%=      5-min Rain = 0
KEA1 132050Z 30020KT 19/M02 A2989 RMK A01 T01931017  RH  024%=      5-min Rain = 0
KEA1 132051Z 29021KT 19/M02 A2989 RMK A01 T01911016  RH  025%=      5-min Rain = 0
KEA1 132052Z 30021KT 19/M02 A2989 RMK A01 T01891017  RH  025%=      5-min Rain = 0
KEA1 132053Z 30015G20KT 19/M02 A2989 RMK A01 T01881016  RH  025%=      5-min Rain = 0
KEA1 132054Z 29014KT 19/M01 A2989 RMK A01 T01891014  RH  025%=      5-min Rain = 0
KEA1 132055Z 29018KT 19/M01 A2989 RMK A01 T01911012  RH  025%=      5-min Rain = 0
KEA1 132056Z 29020KT 19/M02 A2989 RMK A01 T01921015  RH  025%=      5-min Rain = 0
KEA1 132057Z 29020KT 19/M02 A2989 RMK A01 T01901017  RH  024%=      5-min Rain = 0
KEA1 132058Z 30019KT 19/M02 A2989 RMK A01 T01891018  RH  025%=      5-min Rain = 0
KEA1 132059Z 29018G23KT 19/M02 A2989 RMK A01 T01881019  RH  025%=      5-min Rain = 0
KEA1 132100Z 31019KT 19/M02 A2989 RMK A01 T01881017  RH  025%=      5-min Rain = 0
KEA1 132101Z 31018KT 19/M02 A2989 RMK A01 T01891017  RH  025%=      5-min Rain = 0
KEA1 132102Z 30017KT 19/M02 A2989 RMK A01 T01901017  RH  025%=      5-min Rain = 0
KEA1 132103Z 31016G21KT 19/M02 A2989 RMK A01 T01901016  RH  025%=      5-min Rain = 0
KEA1 132104Z 30017KT 19/M02 A2989 RMK A01 T01911016  RH  025%=      5-min Rain = 0
KEA1 132105Z 30017KT 19/M02 A2989 RMK A01 T01911016  RH  024%=      5-min Rain = 0
KEA1 132106Z 30017KT 19/M02 A2989 RMK A01 T01911016  RH  025%=      5-min Rain = 0
KEA1 132107Z 29016KT 19/M02 A2989 RMK A01 T01911015  RH  025%=      5-min Rain = 0
KEA1 132108Z 30019G24KT 19/M02 A2989 RMK A01 T01911016  RH  025%=      5-min Rain = 0
KEA1 132109Z 30019KT 19/M02 A2989 RMK A01 T01901018  RH  024%=      5-min Rain = 0
KEA1 132110Z 30016G21KT 19/M02 A2989 RMK A01 T01891017  RH  025%=      5-min Rain = 0
KEA1 132111Z 30019KT 19/M02 A2989 RMK A01 T01891018  RH  025%=      5-min Rain = 0
KEA1 132112Z 30017KT 19/M02 A2989 RMK A01 T01891018  RH  025%=      5-min Rain = 0
KEA1 132113Z 29018KT 19/M02 A2989 RMK A01 T01891017  RH  025%=      5-min Rain = 0
KEA1 132114Z 29017KT 19/M02 A2989 RMK A01 T01891017  RH  025%=      5-min Rain = 0
KEA1 132115Z 29015KT 19/M02 A2989 RMK A01 T01901016  RH  025%=      5-min Rain = 0
KEA1 132116Z 30015KT 19/M02 A2989 RMK A01 T01901016  RH  025%=      5-min Rain = 0
KEA1 132117Z 30015KT 19/M02 A2989 RMK A01 T01911017  RH  024%=      5-min Rain = 0
KEA1 132118Z 31012KT 19/M02 A2989 RMK A01 T01901015  RH  025%=      5-min Rain = 0
KEA1 132119Z 32011KT 19/M01 A2989 RMK A01 T01921013  RH  025%=      5-min Rain = 0
KEA1 132120Z 32013KT 19/M02 A2989 RMK A01 T01941015  RH  024%=      5-min Rain = 0
KEA1 132121Z 32012KT 19/M02 A2989 RMK A01 T01941016  RH  024%=      5-min Rain = 0
KEA1 132122Z 31012KT 19/M02 A2989 RMK A01 T01931017  RH  024%=      5-min Rain = 0
KEA1 132123Z 33013KT 19/M02 A2988 RMK A01 T01911017  RH  024%=      5-min Rain = 0
KEA1 132124Z 32012KT 19/M02 A2988 RMK A01 T01911016  RH  025%=      5-min Rain = 0
KEA1 132125Z 31010KT 19/M02 A2988 RMK A01 T01911015  RH  025%=      5-min Rain = 0
KEA1 132126Z 31010KT 19/M01 A2988 RMK A01 T01921013  RH  025%=      5-min Rain = 0
KEA1 132127Z 32013KT 19/M01 A2988 RMK A01 T01941013  RH  025%=      5-min Rain = 0
KEA1 132128Z 33012KT 19/M02 A2988 RMK A01 T01931016  RH  024%=      5-min Rain = 0
KEA1 132129Z 32010KT 19/M02 A2988 RMK A01 T01921015  RH  025%=      5-min Rain = 0
KEA1 132130Z 32013KT 19/M02 A2988 RMK A01 T01921016  RH  024%=      5-min Rain = 0
KEA1 132131Z 31011KT 19/M02 A2988 RMK A01 T01921016  RH  024%=      5-min Rain = 0
KEA1 132132Z 32014KT 19/M02 A2988 RMK A01 T01911015  RH  025%=      5-min Rain = 0
KEA1 132133Z 31014KT 19/M02 A2988 RMK A01 T01911016  RH  025%=      5-min Rain = 0
KEA1 132134Z 30010KT 19/M02 A2988 RMK A01 T01911016  RH  025%=      5-min Rain = 0
KEA1 132135Z 30011KT 19/M01 A2988 RMK A01 T01921014  RH  025%=      5-min Rain = 0
KEA1 132136Z 31009KT 19/M01 A2988 RMK A01 T01931014  RH  025%=      5-min Rain = 0
KEA1 132137Z 31012KT 20/M01 A2988 RMK A01 T01951014  RH  024%=      5-min Rain = 0
KEA1 132138Z 30012KT 19/M02 A2988 RMK A01 T01941016  RH  024%=      5-min Rain = 0
KEA1 132139Z 30011KT 19/M02 A2988 RMK A01 T01921016  RH  024%=      5-min Rain = 0
KEA1 132140Z 30011KT 19/M01 A2988 RMK A01 T01921014  RH  025%=      5-min Rain = 0
KEA1 132141Z 31011KT 19/M01 A2989 RMK A01 T01921014  RH  025%=      5-min Rain = 0
KEA1 132142Z 30009KT 19/M01 A2989 RMK A01 T01941012  RH  025%=      5-min Rain = 0
KEA1 132143Z 31011KT 20/M01 A2989 RMK A01 T01951012  RH  025%=      5-min Rain = 0
KEA1 132144Z 31013KT 20/M01 A2989 RMK A01 T01951013  RH  024%=      5-min Rain = 0
KEA1 132145Z 31012KT 19/M02 A2989 RMK A01 T01931015  RH  025%=      5-min Rain = 0
KEA1 132146Z 31010KT 19/M01 A2988 RMK A01 T01921014  RH  025%=      5-min Rain = 0
KEA1 132147Z 31012KT 19/M02 A2988 RMK A01 T01921015  RH  025%=      5-min Rain = 0
KEA1 132148Z 31011KT 19/M02 A2989 RMK A01 T01931017  RH  024%=      5-min Rain = 0
KEA1 132149Z 31010KT 19/M01 A2989 RMK A01 T01931014  RH  025%=      5-min Rain = 0
KEA1 132150Z 31013KT 19/M02 A2988 RMK A01 T01941015  RH  024%=      5-min Rain = 0
KEA1 132151Z 31011KT 19/M02 A2988 RMK A01 T01941016  RH  024%=      5-min Rain = 0
KEA1 132152Z 30008KT 19/M02 A2988 RMK A01 T01931017  RH  024%=      5-min Rain = 0
KEA1 132153Z 30010KT 19/M02 A2988 RMK A01 T01931015  RH  024%=      5-min Rain = 0
KEA1 132154Z 29011KT 19/M02 A2988 RMK A01 T01931016  RH  024%=      5-min Rain = 0
KEA1 132155Z 31010KT 19/M02 A2989 RMK A01 T01921015  RH  025%=      5-min Rain = 0
KEA1 132156Z 32012KT 19/M02 A2989 RMK A01 T01931015  RH  024%=      5-min Rain = 0
KEA1 132157Z 31012KT 19/M02 A2989 RMK A01 T01931015  RH  024%=      5-min Rain = 0
KEA1 132158Z 30011KT 19/M01 A2989 RMK A01 T01921014  RH  025%=      5-min Rain = 0
KEA1 132159Z 31008KT 19/M01 A2989 RMK A01 T01921014  RH  025%=      5-min Rain = 0
KEA1 132200Z 30011KT 19/M01 A2989 RMK A01 T01931014  RH  025%=      5-min Rain = 0
KEA1 132201Z 30009KT 19/M02 A2989 RMK A01 T01931015  RH  025%=      5-min Rain = 0
KEA1 132202Z 30010KT 19/M01 A2989 RMK A01 T01931014  RH  025%=      5-min Rain = 0
KEA1 132203Z 30009KT 19/M02 A2989 RMK A01 T01921015  RH  025%=      5-min Rain = 0
KEA1 132204Z 30010KT 19/M01 A2989 RMK A01 T01921014  RH  025%=      5-min Rain = 0
KEA1 132205Z 30010KT 19/M01 A2989 RMK A01 T01921013  RH  025%=      5-min Rain = 0
KEA1 132206Z 31009KT 19/M01 A2988 RMK A01 T01921014  RH  025%=      5-min Rain = 0
KEA1 132207Z 31011KT 19/M02 A2988 RMK A01 T01921016  RH  024%=      5-min Rain = 0
KEA1 132208Z 31008KT 19/M02 A2988 RMK A01 T01921016  RH  024%=      5-min Rain = 0
KEA1 132209Z 30009KT 19/M02 A2988 RMK A01 T01921016  RH  025%=      5-min Rain = 0
KEA1 132210Z 31007KT 19/M02 A2988 RMK A01 T01911015  RH  025%=      5-min Rain = 0
KEA1 132211Z 30007KT 19/M01 A2988 RMK A01 T01921013  RH  025%=      5-min Rain = 0
KEA1 132212Z 30011KT 19/M01 A2988 RMK A01 T01931013  RH  025%=      5-min Rain = 0
KEA1 132213Z 30011KT 19/M01 A2988 RMK A01 T01921013  RH  025%=      5-min Rain = 0
KEA1 132214Z 31011KT 19/M01 A2988 RMK A01 T01931013  RH  025%=      5-min Rain = 0
KEA1 132215Z 31010KT 19/M02 A2989 RMK A01 T01931015  RH  025%=      5-min Rain = 0
KEA1 132216Z 31009KT 19/M02 A2989 RMK A01 T01921015  RH  025%=      5-min Rain = 0
KEA1 132217Z 31010KT 19/M01 A2989 RMK A01 T01921013  RH  025%=      5-min Rain = 0
KEA1 132218Z 31009KT 19/M01 A2988 RMK A01 T01931014  RH  025%=      5-min Rain = 0
KEA1 132219Z 31008KT 19/M01 A2988 RMK A01 T01931014  RH  025%=      5-min Rain = 0
KEA1 132220Z 31009KT 19/M02 A2989 RMK A01 T01931015  RH  025%=      5-min Rain = 0
KEA1 132221Z 31010KT 19/M02 A2988 RMK A01 T01931015  RH  025%=      5-min Rain = 0
KEA1 132222Z 31009KT 19/M02 A2988 RMK A01 T01931015  RH  025%=      5-min Rain = 0
KEA1 132223Z 31010KT 19/M02 A2988 RMK A01 T01921015  RH  025%=      5-min Rain = 0
KEA1 132224Z 31009KT 19/M02 A2988 RMK A01 T01921015  RH  025%=      5-min Rain = 0
KEA1 132225Z 30011KT 19/M02 A2989 RMK A01 T01921016  RH  025%=      5-min Rain = 0
KEA1 132226Z 30010KT 19/M02 A2989 RMK A01 T01911016  RH  025%=      5-min Rain = 0
KEA1 132227Z 30008KT 19/M01 A2989 RMK A01 T01911014  RH  025%=      5-min Rain = 0
KEA1 132228Z 31008KT 19/M01 A2989 RMK A01 T01921014  RH  025%=      5-min Rain = 0
KEA1 132229Z 31009KT 19/M01 A2989 RMK A01 T01921014  RH  025%=      5-min Rain = 0
KEA1 132230Z 30007KT 19/M02 A2989 RMK A01 T01921015  RH  025%=      5-min Rain = 0
KEA1 132231Z 30009KT 19/M01 A2989 RMK A01 T01921014  RH  025%=      5-min Rain = 0
KEA1 132232Z 30010KT 19/M01 A2989 RMK A01 T01911014  RH  025%=      5-min Rain = 0
KEA1 132233Z 30010KT 19/M02 A2989 RMK A01 T01911015  RH  025%=      5-min Rain = 0
KEA1 132234Z 30011KT 19/M02 A2989 RMK A01 T01911015  RH  025%=      5-min Rain = 0
KEA1 132235Z 29012KT 19/M02 A2988 RMK A01 T01901015  RH  025%=      5-min Rain = 0
KEA1 132236Z 30010KT 19/M01 A2988 RMK A01 T01901014  RH  025%=      5-min Rain = 0
KEA1 132237Z 30008KT 19/M01 A2988 RMK A01 T01891012  RH  026%=      5-min Rain = 0
KEA1 132238Z 30009KT 19/M01 A2988 RMK A01 T01891012  RH  026%=      5-min Rain = 0
KEA1 132239Z 30009KT 19/M01 A2988 RMK A01 T01891012  RH  026%=      5-min Rain = 0
KEA1 132240Z 30009KT 19/M01 A2988 RMK A01 T01891012  RH  026%=      5-min Rain = 0
KEA1 132241Z 30007KT 19/M01 A2988 RMK A01 T01891012  RH  026%=      5-min Rain = 0
KEA1 132242Z 29007KT 19/M01 A2988 RMK A01 T01891011  RH  026%=      5-min Rain = 0
KEA1 132243Z 30010KT 19/M01 A2988 RMK A01 T01891013  RH  025%=      5-min Rain = 0
KEA1 132244Z 29009KT 19/M01 A2988 RMK A01 T01891014  RH  025%=      5-min Rain = 0
KEA1 132245Z 29009KT 19/M01 A2988 RMK A01 T01891014  RH  025%=      5-min Rain = 0
KEA1 132246Z 30010KT 19/M01 A2988 RMK A01 T01881014  RH  025%=      5-min Rain = 0
KEA1 132247Z 30009KT 19/M01 A2988 RMK A01 T01881014  RH  025%=      5-min Rain = 0
KEA1 132248Z 30008KT 19/M01 A2988 RMK A01 T01881013  RH  026%=      5-min Rain = 0
KEA1 132249Z 30008KT 19/M01 A2988 RMK A01 T01871012  RH  026%=      5-min Rain = 0
KEA1 132250Z 30009KT 19/M01 A2988 RMK A01 T01871011  RH  026%=      5-min Rain = 0
KEA1 132251Z 30008KT 19/M01 A2988 RMK A01 T01861011  RH  026%=      5-min Rain = 0
KEA1 132252Z 30008KT 19/M01 A2988 RMK A01 T01861011  RH  026%=      5-min Rain = 0
KEA1 132253Z 30008KT 19/M01 A2988 RMK A01 T01861011  RH  026%=      5-min Rain = 0
KEA1 132254Z 30008KT 19/M01 A2988 RMK A01 T01861012  RH  026%=      5-min Rain = 0
KEA1 132255Z 30009KT 19/M01 A2988 RMK A01 T01851012  RH  026%=      5-min Rain = 0
KEA1 132256Z 30009KT 19/M01 A2988 RMK A01 T01851012  RH  026%=      5-min Rain = 0
KEA1 132257Z 30009KT 18/M01 A2988 RMK A01 T01841012  RH  026%=      5-min Rain = 0
KEA1 132258Z 30009KT 18/M01 A2988 RMK A01 T01841012  RH  027%=      5-min Rain = 0
KEA1 132259Z 30009KT 18/M01 A2988 RMK A01 T01831011  RH  027%=      5-min Rain = 0
KEA1 132300Z 30008KT 18/M01 A2988 RMK A01 T01821011  RH  027%=      5-min Rain = 0
KEA1 132301Z 30009KT 18/M01 A2988 RMK A01 T01811011  RH  027%=      5-min Rain = 0
KEA1 132302Z 30008KT 18/M01 A2988 RMK A01 T01811010  RH  027%=      5-min Rain = 0
KEA1 132303Z 30009KT 18/M01 A2988 RMK A01 T01801010  RH  028%=      5-min Rain = 0
KEA1 132304Z 30009KT 18/M01 A2988 RMK A01 T01801010  RH  028%=      5-min Rain = 0
KEA1 132305Z 30008KT 18/M01 A2988 RMK A01 T01791010  RH  028%=      5-min Rain = 0
KEA1 132306Z 30008KT 18/M01 A2988 RMK A01 T01781010  RH  028%=      5-min Rain = 0
KEA1 132307Z 30008KT 18/M01 A2989 RMK A01 T01781010  RH  028%=      5-min Rain = 0
KEA1 132308Z 30008KT 18/M01 A2989 RMK A01 T01771010  RH  028%=      5-min Rain = 0
KEA1 132309Z 30008KT 18/M01 A2989 RMK A01 T01761010  RH  028%=      5-min Rain = 0
KEA1 132310Z 30008KT 18/M01 A2989 RMK A01 T01751009  RH  029%=      5-min Rain = 0
KEA1 132311Z 29008KT 17/M01 A2989 RMK A01 T01741009  RH  029%=      5-min Rain = 0
KEA1 132312Z 29008KT 17/M01 A2989 RMK A01 T01731008  RH  029%=      5-min Rain = 0
KEA1 132313Z 29007KT 17/M01 A2989 RMK A01 T01721008  RH  029%=      5-min Rain = 0
KEA1 132314Z 29007KT 17/M01 A2989 RMK A01 T01721008  RH  029%=      5-min Rain = 0
KEA1 132315Z 29007KT 17/M01 A2989 RMK A01 T01721009  RH  029%=      5-min Rain = 0
KEA1 132316Z 30008KT 17/M01 A2989 RMK A01 T01711010  RH  029%=      5-min Rain = 0
KEA1 132317Z 30007KT 17/M01 A2989 RMK A01 T01701010  RH  029%=      5-min Rain = 0
KEA1 132318Z 29007KT 17/M01 A2989 RMK A01 T01691011  RH  029%=      5-min Rain = 0
KEA1 132319Z 29007KT 17/M01 A2989 RMK A01 T01671011  RH  030%=      5-min Rain = 0
KEA1 132320Z 29008KT 17/M01 A2989 RMK A01 T01661011  RH  030%=      5-min Rain = 0
KEA1 132321Z 29008KT 17/M01 A2989 RMK A01 T01661011  RH  030%=      5-min Rain = 0
KEA1 132322Z 29008KT 17/M01 A2989 RMK A01 T01661010  RH  030%=      5-min Rain = 0
KEA1 132323Z 29008KT 17/M01 A2989 RMK A01 T01651011  RH  030%=      5-min Rain = 0
KEA1 132324Z 29008KT 17/M01 A2989 RMK A01 T01651011  RH  030%=      5-min Rain = 0
KEA1 132325Z 29008KT 16/M01 A299 RMK A01 T01631012  RH  030%=      5-min Rain = 0
KEA1 132326Z 29007KT 16/M01 A299 RMK A01 T01621012  RH  030%=      5-min Rain = 0
KEA1 132327Z 28008KT 16/M01 A299 RMK A01 T01601012  RH  031%=      5-min Rain = 0
KEA1 132328Z 28008KT 16/M01 A299 RMK A01 T01591012  RH  031%=      5-min Rain = 0
KEA1 132329Z 28008KT 16/M01 A299 RMK A01 T01561009  RH  032%=      5-min Rain = 0
KEA1 132330Z 28008KT 15/M01 A299 RMK A01 T01541009  RH  033%=      5-min Rain = 0
KEA1 132331Z 27007KT 15/M01 A299 RMK A01 T01521007  RH  034%=      5-min Rain = 0
KEA1 132332Z 27008KT 15/M01 A299 RMK A01 T01491008  RH  034%=      5-min Rain = 0
KEA1 132333Z 27007KT 15/M01 A299 RMK A01 T01471012  RH  034%=      5-min Rain = 0
KEA1 132334Z 27008KT 15/M01 A299 RMK A01 T01461014  RH  033%=      5-min Rain = 0
KEA1 132335Z 28008KT 15/M01 A299 RMK A01 T01461014  RH  033%=      5-min Rain = 0
KEA1 132336Z 27008KT 15/M02 A299 RMK A01 T01451016  RH  033%=      5-min Rain = 0
KEA1 132337Z 27008KT 14/M02 A299 RMK A01 T01431018  RH  033%=      5-min Rain = 0
KEA1 132338Z 27009KT 14/M02 A299 RMK A01 T01421019  RH  033%=      5-min Rain = 0
KEA1 132339Z 28008KT 14/M02 A299 RMK A01 T01411020  RH  033%=      5-min Rain = 0
KEA1 132340Z 27008KT 14/M02 A299 RMK A01 T01401019  RH  033%=      5-min Rain = 0
KEA1 132341Z 28010KT 14/M02 A299 RMK A01 T01391018  RH  034%=      5-min Rain = 0
KEA1 132342Z 28009KT 14/M02 A299 RMK A01 T01391018  RH  034%=      5-min Rain = 0
KEA1 132343Z 28010KT 14/M02 A299 RMK A01 T01401017  RH  034%=      5-min Rain = 0
KEA1 132344Z 29009KT 14/M02 A299 RMK A01 T01421018  RH  033%=      5-min Rain = 0
KEA1 132345Z 28009KT 14/M02 A299 RMK A01 T01441019  RH  033%=      5-min Rain = 0
KEA1 132346Z 28010KT 14/M02 A299 RMK A01 T01441019  RH  032%=      5-min Rain = 0
KEA1 132347Z 28009KT 14/M02 A299 RMK A01 T01441020  RH  032%=      5-min Rain = 0
KEA1 132348Z 29010KT 15/M02 A2991 RMK A01 T01451021  RH  032%=      5-min Rain = 0
KEA1 132349Z 29010KT 15/M02 A2991 RMK A01 T01451022  RH  032%=      5-min Rain = 0
KEA1 132350Z 29010KT 15/M03 A2991 RMK A01 T01461026  RH  031%=      5-min Rain = 0
KEA1 132351Z 29009KT 15/M03 A2991 RMK A01 T01471027  RH  030%=      5-min Rain = 0
KEA1 132352Z 29009KT 15/M03 A2991 RMK A01 T01481028  RH  030%=      5-min Rain = 0
KEA1 132353Z 29008KT 15/M03 A2991 RMK A01 T01481029  RH  029%=      5-min Rain = 0
KEA1 132354Z 28008KT 15/M03 A2991 RMK A01 T01461028  RH  030%=      5-min Rain = 0
KEA1 132355Z 28008KT 14/M02 A2991 RMK A01 T01431024  RH  032%=      5-min Rain = 0
KEA1 132356Z 27007KT 14/M02 A2991 RMK A01 T01381021  RH  033%=      5-min Rain = 0
KEA1 132357Z 27007KT 13/M02 A2991 RMK A01 T01341018  RH  035%=      5-min Rain = 0
KEA1 132358Z 28008KT 13/M02 A2991 RMK A01 T01311019  RH  035%=      5-min Rain = 0
KEA1 132359Z 28008KT 13/M02 A2991 RMK A01 T01301021  RH  035%=      5-min Rain = 0
KEA1 140000Z 29008KT 13/M02 A2991 RMK A01 T01281023  RH  035%=      5-min Rain = 0
KEA1 140001Z 29007KT 13/M02 A2991 RMK A01 T01271024  RH  035%=      5-min Rain = 0
KEA1 140002Z 29007KT 13/M02 A2991 RMK A01 T01251023  RH  036%=      5-min Rain = 0
KEA1 140003Z 29007KT 13/M02 A2991 RMK A01 T01251023  RH  036%=      5-min Rain = 0
KEA1 140004Z 29006KT 13/M02 A2992 RMK A01 T01251022  RH  036%=      5-min Rain = 0
KEA1 140005Z 29006KT 12/M02 A2992 RMK A01 T01241024  RH  036%=      5-min Rain = 0
KEA1 140006Z 30006KT 12/M03 A2992 RMK A01 T01231025  RH  036%=      5-min Rain = 0
KEA1 140007Z 29007KT 12/M03 A2992 RMK A01 T01231026  RH  035%=      5-min Rain = 0
KEA1 140008Z 29008KT 12/M03 A2991 RMK A01 T01221027  RH  035%=      5-min Rain = 0
KEA1 140009Z 28008KT 12/M03 A2991 RMK A01 T01221028  RH  035%=      5-min Rain = 0
KEA1 140010Z 29007KT 12/M03 A2991 RMK A01 T01201028  RH  035%=      5-min Rain = 0
KEA1 140011Z 29007KT 12/M03 A2991 RMK A01 T01191025  RH  037%=      5-min Rain = 0
KEA1 140012Z 29007KT 12/M02 A2991 RMK A01 T01171022  RH  038%=      5-min Rain = 0
KEA1 140013Z 29007KT 12/M02 A2991 RMK A01 T01161021  RH  038%=      5-min Rain = 0
KEA1 140014Z 29007KT 12/M02 A2991 RMK A01 T01151021  RH  039%=      5-min Rain = 0
KEA1 140015Z 29006KT 12/M02 A2991 RMK A01 T01161020  RH  039%=      5-min Rain = 0
KEA1 140016Z 28006KT 12/M02 A2991 RMK A01 T01161018  RH  039%=      5-min Rain = 0
KEA1 140017Z 28006KT 11/M02 A2991 RMK A01 T01141019  RH  039%=      5-min Rain = 0
KEA1 140018Z 29007KT 11/M02 A2991 RMK A01 T01121020  RH  040%=      5-min Rain = 0
KEA1 140019Z 30006KT 11/M02 A2991 RMK A01 T01121020  RH  040%=      5-min Rain = 0
KEA1 140020Z 29005KT 11/M02 A2991 RMK A01 T01121019  RH  040%=      5-min Rain = 0
KEA1 140021Z 28006KT 11/M02 A2991 RMK A01 T01111019  RH  040%=      5-min Rain = 0
KEA1 140022Z 29007KT 11/M02 A2991 RMK A01 T01111023  RH  039%=      5-min Rain = 0
KEA1 140023Z 29007KT 11/M02 A2991 RMK A01 T01141023  RH  038%=      5-min Rain = 0
KEA1 140024Z 29006KT 12/M02 A2991 RMK A01 T01161023  RH  038%=      5-min Rain = 0
KEA1 140025Z 29005KT 12/M02 A2991 RMK A01 T01151022  RH  038%=      5-min Rain = 0
KEA1 140026Z 29006KT 11/M02 A2991 RMK A01 T01131022  RH  039%=      5-min Rain = 0
KEA1 140027Z 30006KT 11/M02 A2991 RMK A01 T01131021  RH  039%=      5-min Rain = 0
KEA1 140028Z 30005KT 12/M02 A2991 RMK A01 T01161024  RH  038%=      5-min Rain = 0
KEA1 140029Z 30006KT 12/M02 A2991 RMK A01 T01171024  RH  037%=      5-min Rain = 0
KEA1 140030Z 30006KT 12/M03 A2991 RMK A01 T01181027  RH  036%=      5-min Rain = 0
KEA1 140031Z 29006KT 12/M02 A2991 RMK A01 T01181024  RH  037%=      5-min Rain = 0
KEA1 140032Z 29007KT 12/M02 A2992 RMK A01 T01161024  RH  037%=      5-min Rain = 0
KEA1 140033Z 29007KT 12/M02 A2992 RMK A01 T01151023  RH  038%=      5-min Rain = 0
KEA1 140034Z 29007KT 11/M02 A2992 RMK A01 T01141022  RH  039%=      5-min Rain = 0
KEA1 140035Z 28008KT 11/M02 A2992 RMK A01 T01121018  RH  040%=      5-min Rain = 0
KEA1 140036Z 28008KT 11/M02 A2992 RMK A01 T01091022  RH  040%=      5-min Rain = 0
KEA1 140037Z 27007KT 11/M03 A2992 RMK A01 T01071028  RH  039%=      5-min Rain = 0
KEA1 140038Z 27007KT 11/M03 A2992 RMK A01 T01071030  RH  038%=      5-min Rain = 0
KEA1 140039Z 28007KT 11/M03 A2992 RMK A01 T01081032  RH  037%=      5-min Rain = 0
KEA1 140040Z 28008KT 11/M03 A2992 RMK A01 T01101032  RH  037%=      5-min Rain = 0
KEA1 140041Z 28007KT 11/M03 A2992 RMK A01 T01121031  RH  037%=      5-min Rain = 0
KEA1 140042Z 27007KT 11/M03 A2992 RMK A01 T01121031  RH  037%=      5-min Rain = 0
KEA1 140043Z 27007KT 11/M03 A2992 RMK A01 T01111031  RH  037%=      5-min Rain = 0
KEA1 140044Z 27007KT 11/M03 A2992 RMK A01 T01101031  RH  037%=      5-min Rain = 0
KEA1 140045Z 27008KT 11/M03 A2992 RMK A01 T01091032  RH  037%=      5-min Rain = 0
KEA1 140046Z 26008KT 11/M03 A2992 RMK A01 T01081033  RH  037%=      5-min Rain = 0
KEA1 140047Z 26008KT 11/M03 A2992 RMK A01 T01051033  RH  038%=      5-min Rain = 0
KEA1 140048Z 26008KT 10/M03 A2992 RMK A01 T01031034  RH  038%=      5-min Rain = 0
KEA1 140049Z 25008KT 10/M03 A2992 RMK A01 T01031033  RH  038%=      5-min Rain = 0
KEA1 140050Z 26008KT 10/M03 A2992 RMK A01 T01041033  RH  038%=      5-min Rain = 0
KEA1 140051Z 26009KT 11/M03 A2992 RMK A01 T01051032  RH  038%=      5-min Rain = 0
KEA1 140052Z 27008KT 10/M03 A2992 RMK A01 T01041032  RH  038%=      5-min Rain = 0
KEA1 140053Z 27007KT 10/M03 A2992 RMK A01 T01021032  RH  039%=      5-min Rain = 0
KEA1 140054Z 27007KT 10/M03 A2993 RMK A01 T00991032  RH  039%=      5-min Rain = 0
KEA1 140055Z 27007KT 10/M03 A2993 RMK A01 T00981032  RH  040%=      5-min Rain = 0
KEA1 140056Z 27006KT 10/M03 A2993 RMK A01 T00961032  RH  040%=      5-min Rain = 0
KEA1 140057Z 27006KT 10/M03 A2993 RMK A01 T00951030  RH  041%=      5-min Rain = 0
KEA1 140058Z 27008KT 10/M03 A2993 RMK A01 T00971026  RH  042%=      5-min Rain = 0
KEA1 140059Z 27009KT 10/M03 A2993 RMK A01 T01001025  RH  042%=      5-min Rain = 0
KEA1 140100Z 26009KT 10/M02 A2993 RMK A01 T01021024  RH  041%=      5-min Rain = 0
KEA1 140101Z 27009KT 10/M03 A2993 RMK A01 T01021025  RH  041%=      5-min Rain = 0
KEA1 140102Z 27009KT 10/M02 A2993 RMK A01 T01021024  RH  041%=      5-min Rain = 0
KEA1 140103Z 27009KT 10/M02 A2993 RMK A01 T01001022  RH  042%=      5-min Rain = 0
KEA1 140104Z 27009KT 10/M02 A2993 RMK A01 T00981022  RH  043%=      5-min Rain = 0
KEA1 140105Z 27010KT 10/M02 A2994 RMK A01 T00961022  RH  043%=      5-min Rain = 0
KEA1 140106Z 27009KT 10/M02 A2994 RMK A01 T00951023  RH  044%=      5-min Rain = 0
KEA1 140107Z 27009KT 09/M02 A2994 RMK A01 T00941023  RH  044%=      5-min Rain = 0
KEA1 140108Z 27009KT 09/M02 A2994 RMK A01 T00931023  RH  044%=      5-min Rain = 0
KEA1 140109Z 27009KT 09/M02 A2994 RMK A01 T00921024  RH  044%=      5-min Rain = 0
KEA1 140110Z 28008KT 09/M02 A2994 RMK A01 T00921023  RH  044%=      5-min Rain = 0
KEA1 140111Z 28008KT 09/M02 A2994 RMK A01 T00921022  RH  045%=      5-min Rain = 0
KEA1 140112Z 28008KT 09/M02 A2994 RMK A01 T00911021  RH  045%=      5-min Rain = 0
KEA1 140113Z 28007KT 09/M02 A2994 RMK A01 T00911020  RH  046%=      5-min Rain = 0
KEA1 140114Z 28008KT 09/M02 A2994 RMK A01 T00911020  RH  046%=      5-min Rain = 0
KEA1 140115Z 28008KT 09/M02 A2994 RMK A01 T00901020  RH  046%=      5-min Rain = 0
KEA1 140116Z 28007KT 09/M02 A2994 RMK A01 T00901021  RH  046%=      5-min Rain = 0
KEA1 140117Z 28007KT 09/M02 A2994 RMK A01 T00891020  RH  046%=      5-min Rain = 0
KEA1 140118Z 28008KT 09/M02 A2995 RMK A01 T00871020  RH  047%=      5-min Rain = 0
KEA1 140119Z 28007KT 09/M02 A2995 RMK A01 T00861020  RH  047%=      5-min Rain = 0
KEA1 140120Z 28007KT 09/M02 A2995 RMK A01 T00851020  RH  048%=      5-min Rain = 0
KEA1 140121Z 28007KT 08/M02 A2995 RMK A01 T00841020  RH  048%=      5-min Rain = 0
KEA1 140122Z 29007KT 08/M02 A2995 RMK A01 T00821021  RH  048%=      5-min Rain = 0
KEA1 140123Z 29007KT 08/M02 A2995 RMK A01 T00811024  RH  048%=      5-min Rain = 0
KEA1 140124Z 29007KT 08/M03 A2995 RMK A01 T00791026  RH  047%=      5-min Rain = 0
KEA1 140125Z 29007KT 08/M03 A2995 RMK A01 T00781027  RH  047%=      5-min Rain = 0
KEA1 140126Z 28007KT 08/M03 A2995 RMK A01 T00771026  RH  048%=      5-min Rain = 0
KEA1 140127Z 28007KT 08/M03 A2995 RMK A01 T00771025  RH  048%=      5-min Rain = 0
KEA1 140128Z 28008KT 08/M03 A2995 RMK A01 T00781025  RH  048%=      5-min Rain = 0
KEA1 140129Z 27007KT 08/M03 A2995 RMK A01 T00791026  RH  048%=      5-min Rain = 0
KEA1 140130Z 27008KT 08/M03 A2995 RMK A01 T00781026  RH  048%=      5-min Rain = 0
KEA1 140131Z 27007KT 08/M03 A2995 RMK A01 T00771025  RH  048%=      5-min Rain = 0
KEA1 140132Z 27007KT 08/M02 A2995 RMK A01 T00751023  RH  050%=      5-min Rain = 0
KEA1 140133Z 27007KT 07/M02 A2995 RMK A01 T00731021  RH  051%=      5-min Rain = 0
KEA1 140134Z 27007KT 07/M02 A2995 RMK A01 T00731019  RH  052%=      5-min Rain = 0
KEA1 140135Z 26008KT 07/M02 A2995 RMK A01 T00731018  RH  052%=      5-min Rain = 0
KEA1 140136Z 26009KT 07/M02 A2995 RMK A01 T00721023  RH  051%=      5-min Rain = 0
KEA1 140137Z 27009KT 07/M03 A2995 RMK A01 T00721026  RH  050%=      5-min Rain = 0
KEA1 140138Z 27009KT 07/M03 A2995 RMK A01 T00721028  RH  049%=      5-min Rain = 0
KEA1 140139Z 27009KT 08/M03 A2995 RMK A01 T00751028  RH  048%=      5-min Rain = 0
KEA1 140140Z 26009KT 08/M03 A2995 RMK A01 T00761028  RH  048%=      5-min Rain = 0
KEA1 140141Z 26009KT 08/M03 A2995 RMK A01 T00771028  RH  047%=      5-min Rain = 0
KEA1 140142Z 26009KT 08/M03 A2995 RMK A01 T00761028  RH  047%=      5-min Rain = 0
KEA1 140143Z 26008KT 08/M03 A2995 RMK A01 T00751029  RH  048%=      5-min Rain = 0
KEA1 140144Z 27007KT 08/M03 A2995 RMK A01 T00751029  RH  048%=      5-min Rain = 0
KEA1 140145Z 27007KT 07/M03 A2995 RMK A01 T00741029  RH  048%=      5-min Rain = 0
KEA1 140146Z 27007KT 07/M03 A2995 RMK A01 T00731029  RH  048%=      5-min Rain = 0
KEA1 140147Z 27008KT 07/M03 A2995 RMK A01 T00721028  RH  049%=      5-min Rain = 0
KEA1 140148Z 27008KT 07/M03 A2995 RMK A01 T00721028  RH  049%=      5-min Rain = 0
KEA1 140149Z 27007KT 07/M03 A2995 RMK A01 T00711028  RH  049%=      5-min Rain = 0
KEA1 140150Z 27007KT 07/M03 A2995 RMK A01 T00701028  RH  049%=      5-min Rain = 0
KEA1 140151Z 27007KT 07/M03 A2995 RMK A01 T00691029  RH  050%=      5-min Rain = 0
KEA1 140152Z 26008KT 07/M03 A2995 RMK A01 T00681028  RH  050%=      5-min Rain = 0
KEA1 140153Z 26008KT 07/M03 A2995 RMK A01 T00681029  RH  050%=      5-min Rain = 0
KEA1 140154Z 26008KT 07/M03 A2995 RMK A01 T00681028  RH  050%=      5-min Rain = 0
KEA1 140155Z 27008KT 07/M03 A2995 RMK A01 T00671028  RH  050%=      5-min Rain = 0
KEA1 140156Z 27009KT 07/M03 A2995 RMK A01 T00681027  RH  051%=      5-min Rain = 0
KEA1 140157Z 27009KT 07/M03 A2995 RMK A01 T00701026  RH  050%=      5-min Rain = 0
KEA1 140158Z 27010KT 07/M03 A2996 RMK A01 T00721027  RH  050%=      5-min Rain = 0
KEA1 140159Z 27009KT 07/M03 A2996 RMK A01 T00721027  RH  049%=      5-min Rain = 0
KEA1 140200Z 26010KT 07/M03 A2996 RMK A01 T00711027  RH  050%=      5-min Rain = 0
KEA1 140201Z 26009KT 07/M03 A2996 RMK A01 T00701027  RH  050%=      5-min Rain = 0
KEA1 140202Z 26009KT 07/M03 A2996 RMK A01 T00691027  RH  050%=      5-min Rain = 0
KEA1 140203Z 26009KT 07/M03 A2996 RMK A01 T00711027  RH  050%=      5-min Rain = 0
KEA1 140204Z 26009KT 07/M03 A2996 RMK A01 T00731027  RH  049%=      5-min Rain = 0
KEA1 140205Z 26009KT 07/M03 A2996 RMK A01 T00731027  RH  049%=      5-min Rain = 0
KEA1 140206Z 26009KT 07/M03 A2996 RMK A01 T00731027  RH  049%=      5-min Rain = 0
KEA1 140207Z 26009KT 07/M03 A2996 RMK A01 T00731028  RH  049%=      5-min Rain = 0
KEA1 140208Z 25009KT 07/M03 A2996 RMK A01 T00721028  RH  049%=      5-min Rain = 0
KEA1 140209Z 25009KT 07/M03 A2995 RMK A01 T00721028  RH  049%=      5-min Rain = 0
KEA1 140210Z 26009KT 07/M03 A2995 RMK A01 T00731028  RH  049%=      5-min Rain = 0
KEA1 140211Z 25009KT 07/M03 A2995 RMK A01 T00731028  RH  049%=      5-min Rain = 0
KEA1 140212Z 26008KT 07/M03 A2995 RMK A01 T00731028  RH  049%=      5-min Rain = 0
KEA1 140213Z 25009KT 07/M03 A2995 RMK A01 T00731028  RH  049%=      5-min Rain = 0
KEA1 140214Z 26009KT 07/M03 A2995 RMK A01 T00721028  RH  049%=      5-min Rain = 0
KEA1 140215Z 26009KT 07/M03 A2995 RMK A01 T00721028  RH  049%=      5-min Rain = 0
KEA1 140216Z 26008KT 07/M03 A2995 RMK A01 T00721028  RH  049%=      5-min Rain = 0
KEA1 140217Z 26008KT 07/M03 A2995 RMK A01 T00721029  RH  049%=      5-min Rain = 0
KEA1 140218Z 26009KT 07/M03 A2995 RMK A01 T00721029  RH  049%=      5-min Rain = 0
KEA1 140219Z 26009KT 07/M03 A2996 RMK A01 T00721029  RH  049%=      5-min Rain = 0
KEA1 140220Z 26009KT 07/M03 A2996 RMK A01 T00711030  RH  049%=      5-min Rain = 0
KEA1 140221Z 26009KT 07/M03 A2996 RMK A01 T00701030  RH  049%=      5-min Rain = 0
KEA1 140222Z 26009KT 07/M03 A2996 RMK A01 T00691030  RH  049%=      5-min Rain = 0
KEA1 140223Z 26009KT 07/M03 A2996 RMK A01 T00691030  RH  049%=      5-min Rain = 0
KEA1 140224Z 26010KT 07/M03 A2996 RMK A01 T00691030  RH  049%=      5-min Rain = 0
KEA1 140225Z 26009KT 07/M03 A2996 RMK A01 T00691029  RH  049%=      5-min Rain = 0
KEA1 140226Z 26010KT 07/M03 A2996 RMK A01 T00681029  RH  050%=      5-min Rain = 0
KEA1 140227Z 26010KT 07/M03 A2996 RMK A01 T00681029  RH  050%=      5-min Rain = 0
KEA1 140228Z 26009KT 07/M03 A2996 RMK A01 T00681029  RH  050%=      5-min Rain = 0
KEA1 140229Z 26009KT 07/M03 A2996 RMK A01 T00691028  RH  050%=      5-min Rain = 0
KEA1 140230Z 26009KT 07/M03 A2996 RMK A01 T00691029  RH  050%=      5-min Rain = 0
KEA1 140231Z 25009KT 07/M03 A2995 RMK A01 T00691029  RH  050%=      5-min Rain = 0
KEA1 140232Z 26009KT 07/M03 A2995 RMK A01 T00681029  RH  050%=      5-min Rain = 0
KEA1 140233Z 26010KT 07/M03 A2996 RMK A01 T00671030  RH  050%=      5-min Rain = 0
KEA1 140234Z 26010KT 07/M03 A2996 RMK A01 T00671030  RH  050%=      5-min Rain = 0
KEA1 140235Z 26010KT 07/M03 A2996 RMK A01 T00681030  RH  050%=      5-min Rain = 0
KEA1 140236Z 26010KT 07/M03 A2996 RMK A01 T00681029  RH  050%=      5-min Rain = 0
KEA1 140237Z 26009KT 07/M03 A2995 RMK A01 T00691029  RH  050%=      5-min Rain = 0
KEA1 140238Z 26009KT 07/M03 A2995 RMK A01 T00691030  RH  049%=      5-min Rain = 0
KEA1 140239Z 26010KT 07/M03 A2995 RMK A01 T00691030  RH  049%=      5-min Rain = 0
KEA1 140240Z 25010KT 07/M03 A2995 RMK A01 T00681030  RH  050%=      5-min Rain = 0
KEA1 140241Z 25010KT 07/M03 A2995 RMK A01 T00671030  RH  050%=      5-min Rain = 0
KEA1 140242Z 25010KT 07/M03 A2995 RMK A01 T00661030  RH  050%=      5-min Rain = 0
KEA1 140243Z 25011KT 07/M03 A2995 RMK A01 T00671030  RH  050%=      5-min Rain = 0
KEA1 140244Z 26011KT 07/M03 A2995 RMK A01 T00691030  RH  049%=      5-min Rain = 0
KEA1 140245Z 26010KT 07/M03 A2995 RMK A01 T00691031  RH  049%=      5-min Rain = 0
KEA1 140246Z 26010KT 07/M03 A2995 RMK A01 T00691030  RH  049%=      5-min Rain = 0
KEA1 140247Z 26009KT 07/M03 A2995 RMK A01 T00691031  RH  049%=      5-min Rain = 0
KEA1 140248Z 27009KT 07/M03 A2995 RMK A01 T00701030  RH  049%=      5-min Rain = 0
KEA1 140249Z 26009KT 07/M03 A2995 RMK A01 T00691030  RH  049%=      5-min Rain = 0
KEA1 140250Z 27009KT 07/M03 A2995 RMK A01 T00681031  RH  049%=      5-min Rain = 0
KEA1 140251Z 27009KT 07/M03 A2995 RMK A01 T00661032  RH  050%=      5-min Rain = 0
KEA1 140252Z 26010KT 06/M03 A2995 RMK A01 T00641032  RH  050%=      5-min Rain = 0
KEA1 140253Z 26010KT 06/M03 A2995 RMK A01 T00631032  RH  051%=      5-min Rain = 0
KEA1 140254Z 26009KT 06/M03 A2995 RMK A01 T00621032  RH  051%=      5-min Rain = 0
KEA1 140255Z 26009KT 06/M03 A2995 RMK A01 T00611032  RH  051%=      5-min Rain = 0
KEA1 140256Z 26009KT 06/M03 A2995 RMK A01 T00601031  RH  052%=      5-min Rain = 0
KEA1 140257Z 26010KT 06/M03 A2995 RMK A01 T00601031  RH  052%=      5-min Rain = 0
KEA1 140258Z 26010KT 06/M03 A2995 RMK A01 T00601030  RH  052%=      5-min Rain = 0
KEA1 140259Z 26010KT 06/M03 A2995 RMK A01 T00591031  RH  053%=      5-min Rain = 0
KEA1 140300Z 26009KT 06/M03 A2995 RMK A01 T00571031  RH  053%=      5-min Rain = 0
KEA1 140301Z 26010KT 06/M03 A2995 RMK A01 T00561031  RH  053%=      5-min Rain = 0
KEA1 140302Z 26010KT 06/M03 A2996 RMK A01 T00561031  RH  053%=      5-min Rain = 0
KEA1 140303Z 26010KT 06/M03 A2996 RMK A01 T00561032  RH  053%=      5-min Rain = 0
KEA1 140304Z 26011KT 06/M03 A2996 RMK A01 T00551032  RH  053%=      5-min Rain = 0
KEA1 140305Z 26010KT 06/M03 A2996 RMK A01 T00551031  RH  054%=      5-min Rain = 0
KEA1 140306Z 27010KT 06/M03 A2996 RMK A01 T00561031  RH  054%=      5-min Rain = 0
KEA1 140307Z 27011KT 06/M03 A2996 RMK A01 T00561030  RH  054%=      5-min Rain = 0
KEA1 140308Z 27011KT 06/M03 A2996 RMK A01 T00551031  RH  054%=      5-min Rain = 0
KEA1 140309Z 27010KT 06/M03 A2996 RMK A01 T00551031  RH  054%=      5-min Rain = 0
KEA1 140310Z 27010KT 06/M03 A2996 RMK A01 T00551031  RH  054%=      5-min Rain = 0
KEA1 140311Z 27010KT 06/M03 A2996 RMK A01 T00551031  RH  054%=      5-min Rain = 0
KEA1 140312Z 27009KT 06/M03 A2996 RMK A01 T00551032  RH  054%=      5-min Rain = 0
KEA1 140313Z 28009KT 06/M03 A2995 RMK A01 T00551032  RH  054%=      5-min Rain = 0
KEA1 140314Z 28009KT 06/M03 A2995 RMK A01 T00551033  RH  053%=      5-min Rain = 0
KEA1 140315Z 28009KT 05/M03 A2995 RMK A01 T00541033  RH  053%=      5-min Rain = 0
KEA1 140316Z 28010KT 05/M03 A2995 RMK A01 T00531033  RH  054%=      5-min Rain = 0
KEA1 140317Z 28010KT 05/M03 A2995 RMK A01 T00521033  RH  054%=      5-min Rain = 0
KEA1 140318Z 28010KT 05/M03 A2995 RMK A01 T00511033  RH  055%=      5-min Rain = 0
KEA1 140319Z 28010KT 05/M03 A2995 RMK A01 T00491032  RH  056%=      5-min Rain = 0
KEA1 140320Z 28011KT 05/M03 A2996 RMK A01 T00491031  RH  056%=      5-min Rain = 0
KEA1 140321Z 29011KT 05/M03 A2996 RMK A01 T00491030  RH  057%=      5-min Rain = 0
KEA1 140322Z 29011KT 05/M03 A2996 RMK A01 T00511029  RH  056%=      5-min Rain = 0
KEA1 140323Z 29010KT 05/M03 A2996 RMK A01 T00531029  RH  055%=      5-min Rain = 0
KEA1 140324Z 29010KT 05/M03 A2996 RMK A01 T00531029  RH  055%=      5-min Rain = 0
KEA1 140325Z 29010KT 06/M03 A2996 RMK A01 T00551029  RH  055%=      5-min Rain = 0
KEA1 140326Z 29010KT 06/M03 A2996 RMK A01 T00591028  RH  054%=      5-min Rain = 0
KEA1 140327Z 30010KT 06/M03 A2996 RMK A01 T00611029  RH  052%=      5-min Rain = 0
KEA1 140328Z 30009KT 06/M03 A2995 RMK A01 T00631030  RH  051%=      5-min Rain = 0
KEA1 140329Z 29009KT 06/M03 A2995 RMK A01 T00641031  RH  051%=      5-min Rain = 0
KEA1 140330Z 30010KT 06/M03 A2995 RMK A01 T00641031  RH  050%=      5-min Rain = 0
KEA1 140331Z 30009KT 07/M03 A2995 RMK A01 T00651032  RH  050%=      5-min Rain = 0
KEA1 140332Z 30009KT 06/M03 A2995 RMK A01 T00641032  RH  050%=      5-min Rain = 0
KEA1 140333Z 30009KT 06/M03 A2995 RMK A01 T00631032  RH  050%=      5-min Rain = 0
KEA1 140334Z 30009KT 06/M03 A2995 RMK A01 T00631032  RH  051%=      5-min Rain = 0
KEA1 140335Z 30009KT 06/M03 A2995 RMK A01 T00611032  RH  051%=      5-min Rain = 0
KEA1 140336Z 30008KT 06/M03 A2995 RMK A01 T00611032  RH  051%=      5-min Rain = 0
KEA1 140337Z 30008KT 06/M03 A2995 RMK A01 T00611032  RH  051%=      5-min Rain = 0
KEA1 140338Z 30008KT 06/M03 A2995 RMK A01 T00601033  RH  051%=      5-min Rain = 0
KEA1 140339Z 30008KT 06/M03 A2995 RMK A01 T00591033  RH  051%=      5-min Rain = 0
KEA1 140340Z 30008KT 06/M03 A2995 RMK A01 T00591034  RH  051%=      5-min Rain = 0
KEA1 140341Z 30007KT 06/M03 A2995 RMK A01 T00591034  RH  051%=      5-min Rain = 0
KEA1 140342Z 29007KT 06/M03 A2995 RMK A01 T00581034  RH  052%=      5-min Rain = 0
KEA1 140343Z 28006KT 06/M03 A2994 RMK A01 T00571033  RH  052%=      5-min Rain = 0
KEA1 140344Z 27005KT 06/M03 A2994 RMK A01 T00551031  RH  054%=      5-min Rain = 0
KEA1 140345Z 26006KT 05/M03 A2994 RMK A01 T00521031  RH  055%=      5-min Rain = 0
KEA1 140346Z 26006KT 05/M03 A2994 RMK A01 T00491033  RH  055%=      5-min Rain = 0
KEA1 140347Z 26007KT 05/M04 A2994 RMK A01 T00471035  RH  055%=      5-min Rain = 0
KEA1 140348Z 27008KT 05/M04 A2994 RMK A01 T00461037  RH  055%=      5-min Rain = 0
KEA1 140349Z 27008KT 05/M04 A2994 RMK A01 T00471038  RH  054%=      5-min Rain = 0
KEA1 140350Z 27008KT 05/M04 A2994 RMK A01 T00501037  RH  053%=      5-min Rain = 0
KEA1 140351Z 28008KT 05/M04 A2994 RMK A01 T00511037  RH  053%=      5-min Rain = 0
KEA1 140352Z 27008KT 05/M04 A2994 RMK A01 T00521038  RH  053%=      5-min Rain = 0
KEA1 140353Z 27009KT 05/M04 A2994 RMK A01 T00521038  RH  052%=      5-min Rain = 0
KEA1 140354Z 27009KT 05/M04 A2994 RMK A01 T00531038  RH  052%=      5-min Rain = 0
KEA1 140355Z 26009KT 05/M04 A2994 RMK A01 T00531039  RH  052%=      5-min Rain = 0
KEA1 140356Z 26009KT 05/M04 A2994 RMK A01 T00541038  RH  052%=      5-min Rain = 0
KEA1 140357Z 25009KT 05/M04 A2994 RMK A01 T00541038  RH  052%=      5-min Rain = 0
KEA1 140358Z 25009KT 05/M04 A2994 RMK A01 T00531038  RH  052%=      5-min Rain = 0
KEA1 140359Z 25009KT 05/M04 A2994 RMK A01 T00541038  RH  051%=      5-min Rain = 0
KEA1 140400Z 24009KT 06/M04 A2995 RMK A01 T00551038  RH  051%=      5-min Rain = 0
KEA1 140401Z 24011KT 05/M04 A2995 RMK A01 T00531038  RH  052%=      5-min Rain = 0
KEA1 140402Z 24011KT 05/M04 A2994 RMK A01 T00521037  RH  052%=      5-min Rain = 0
KEA1 140403Z 24011KT 05/M04 A2994 RMK A01 T00521037  RH  052%=      5-min Rain = 0
KEA1 140404Z 25011KT 05/M04 A2995 RMK A01 T00531037  RH  052%=      5-min Rain = 0
KEA1 140405Z 24012KT 05/M04 A2995 RMK A01 T00541037  RH  052%=      5-min Rain = 0
KEA1 140406Z 24014KT 06/M04 A2995 RMK A01 T00551037  RH  052%=      5-min Rain = 0
KEA1 140407Z 24012KT 05/M04 A2995 RMK A01 T00521039  RH  052%=      5-min Rain = 0
KEA1 140408Z 25012KT 05/M04 A2995 RMK A01 T00501038  RH  053%=      5-min Rain = 0
KEA1 140409Z 25011KT 05/M04 A2995 RMK A01 T00511037  RH  053%=      5-min Rain = 0
KEA1 140410Z 25011KT 06/M04 A2995 RMK A01 T00551036  RH  052%=      5-min Rain = 0
KEA1 140411Z 25011KT 06/M04 A2995 RMK A01 T00571036  RH  051%=      5-min Rain = 0
KEA1 140412Z 25010KT 06/M04 A2995 RMK A01 T00581037  RH  050%=      5-min Rain = 0
KEA1 140413Z 25011KT 06/M04 A2995 RMK A01 T00571038  RH  050%=      5-min Rain = 0
KEA1 140414Z 25011KT 06/M04 A2995 RMK A01 T00561038  RH  050%=      5-min Rain = 0
KEA1 140415Z 25010KT 06/M04 A2995 RMK A01 T00561038  RH  051%=      5-min Rain = 0
KEA1 140416Z 26009KT 06/M04 A2995 RMK A01 T00561038  RH  051%=      5-min Rain = 0
KEA1 140417Z 25009KT 06/M04 A2995 RMK A01 T00561038  RH  051%=      5-min Rain = 0
KEA1 140418Z 25010KT 06/M04 A2995 RMK A01 T00561037  RH  051%=      5-min Rain = 0
KEA1 140419Z 26009KT 06/M04 A2995 RMK A01 T00571036  RH  051%=      5-min Rain = 0
KEA1 140420Z 26009KT 06/M04 A2995 RMK A01 T00571036  RH  051%=      5-min Rain = 0
KEA1 140421Z 26010KT 06/M04 A2995 RMK A01 T00561036  RH  052%=      5-min Rain = 0
KEA1 140422Z 26010KT 06/M04 A2995 RMK A01 T00561035  RH  052%=      5-min Rain = 0
KEA1 140423Z 26010KT 06/M04 A2995 RMK A01 T00571035  RH  052%=      5-min Rain = 0
KEA1 140424Z 26009KT 06/M04 A2995 RMK A01 T00561036  RH  052%=      5-min Rain = 0
KEA1 140425Z 26009KT 06/M04 A2995 RMK A01 T00571035  RH  052%=      5-min Rain = 0
KEA1 140426Z 26009KT 06/M04 A2995 RMK A01 T00561035  RH  052%=      5-min Rain = 0
KEA1 140427Z 26009KT 06/M04 A2994 RMK A01 T00551035  RH  052%=      5-min Rain = 0
KEA1 140428Z 26008KT 06/M04 A2994 RMK A01 T00551035  RH  052%=      5-min Rain = 0
KEA1 140429Z 26008KT 05/M04 A2994 RMK A01 T00541035  RH  053%=      5-min Rain = 0
KEA1 140430Z 26009KT 05/M04 A2994 RMK A01 T00541035  RH  053%=      5-min Rain = 0
KEA1 140431Z 26009KT 05/M04 A2994 RMK A01 T00531035  RH  053%=      5-min Rain = 0
KEA1 140432Z 26009KT 05/M04 A2994 RMK A01 T00521035  RH  054%=      5-min Rain = 0
KEA1 140433Z 26009KT 05/M04 A2994 RMK A01 T00511035  RH  054%=      5-min Rain = 0
KEA1 140434Z 26009KT 05/M03 A2994 RMK A01 T00501034  RH  055%=      5-min Rain = 0
KEA1 140435Z 26009KT 05/M03 A2994 RMK A01 T00491034  RH  055%=      5-min Rain = 0
KEA1 140436Z 27008KT 05/M03 A2994 RMK A01 T00491033  RH  055%=      5-min Rain = 0
KEA1 140437Z 26009KT 05/M03 A2994 RMK A01 T00491033  RH  055%=      5-min Rain = 0
KEA1 140438Z 27008KT 05/M03 A2994 RMK A01 T00481033  RH  055%=      5-min Rain = 0
KEA1 140439Z 26009KT 05/M03 A2994 RMK A01 T00481033  RH  056%=      5-min Rain = 0
KEA1 140440Z 27009KT 05/M03 A2994 RMK A01 T00471033  RH  056%=      5-min Rain = 0
KEA1 140441Z 27009KT 05/M03 A2994 RMK A01 T00471033  RH  056%=      5-min Rain = 0
KEA1 140442Z 27008KT 05/M03 A2994 RMK A01 T00461033  RH  057%=      5-min Rain = 0
KEA1 140443Z 27008KT 05/M03 A2994 RMK A01 T00451033  RH  057%=      5-min Rain = 0
KEA1 140444Z 28008KT 05/M03 A2994 RMK A01 T00451034  RH  057%=      5-min Rain = 0
KEA1 140445Z 28008KT 04/M03 A2994 RMK A01 T00441034  RH  057%=      5-min Rain = 0
KEA1 140446Z 28008KT 04/M04 A2994 RMK A01 T00421035  RH  057%=      5-min Rain = 0
KEA1 140447Z 28008KT 04/M04 A2994 RMK A01 T00421035  RH  057%=      5-min Rain = 0
KEA1 140448Z 28008KT 04/M03 A2994 RMK A01 T00401034  RH  058%=      5-min Rain = 0
KEA1 140449Z 28008KT 04/M03 A2994 RMK A01 T00391033  RH  059%=      5-min Rain = 0
KEA1 140450Z 28008KT 04/M03 A2994 RMK A01 T00391031  RH  060%=      5-min Rain = 0
KEA1 140451Z 29008KT 04/M03 A2994 RMK A01 T00391031  RH  060%=      5-min Rain = 0
KEA1 140452Z 29008KT 04/M03 A2994 RMK A01 T00391031  RH  060%=      5-min Rain = 0
KEA1 140453Z 29008KT 04/M03 A2994 RMK A01 T00381032  RH  060%=      5-min Rain = 0
KEA1 140454Z 29008KT 04/M03 A2994 RMK A01 T00381031  RH  061%=      5-min Rain = 0
KEA1 140455Z 29008KT 04/M03 A2994 RMK A01 T00371032  RH  061%=      5-min Rain = 0
KEA1 140456Z 28008KT 04/M03 A2994 RMK A01 T00361032  RH  061%=      5-min Rain = 0
KEA1 140457Z 28008KT 04/M03 A2994 RMK A01 T00361032  RH  061%=      5-min Rain = 0
KEA1 140458Z 28007KT 04/M03 A2994 RMK A01 T00361031  RH  062%=      5-min Rain = 0
KEA1 140459Z 28007KT 04/M03 A2995 RMK A01 T00361031  RH  062%=      5-min Rain = 0
KEA1 140500Z 28007KT 04/M03 A2995 RMK A01 T00361031  RH  062%=      5-min Rain = 0
KEA1 140501Z 29007KT 04/M03 A2995 RMK A01 T00351031  RH  062%=      5-min Rain = 0
KEA1 140502Z 29007KT 03/M03 A2995 RMK A01 T00341031  RH  062%=      5-min Rain = 0
KEA1 140503Z 29007KT 04/M03 A2995 RMK A01 T00351030  RH  062%=      5-min Rain = 0
KEA1 140504Z 29007KT 04/M03 A2995 RMK A01 T00351031  RH  062%=      5-min Rain = 0
KEA1 140505Z 29007KT 04/M03 A2995 RMK A01 T00351032  RH  062%=      5-min Rain = 0
KEA1 140506Z 29007KT 04/M03 A2995 RMK A01 T00351032  RH  062%=      5-min Rain = 0
KEA1 140507Z 29007KT 04/M03 A2995 RMK A01 T00351032  RH  062%=      5-min Rain = 0
KEA1 140508Z 29008KT 03/M03 A2995 RMK A01 T00341032  RH  062%=      5-min Rain = 0
KEA1 140509Z 29008KT 03/M03 A2995 RMK A01 T00331032  RH  062%=      5-min Rain = 0
KEA1 140510Z 29007KT 03/M03 A2995 RMK A01 T00321033  RH  062%=      5-min Rain = 0
KEA1 140511Z 29007KT 03/M03 A2995 RMK A01 T00321033  RH  063%=      5-min Rain = 0
KEA1 140512Z 29007KT 03/M03 A2994 RMK A01 T00311032  RH  063%=      5-min Rain = 0
KEA1 140513Z 29006KT 03/M03 A2994 RMK A01 T00311032  RH  063%=      5-min Rain = 0
KEA1 140514Z 29006KT 03/M03 A2994 RMK A01 T00321032  RH  063%=      5-min Rain = 0
KEA1 140515Z 29006KT 03/M03 A2994 RMK A01 T00321032  RH  063%=      5-min Rain = 0
KEA1 140516Z 29006KT 03/M03 A2994 RMK A01 T00331032  RH  063%=      5-min Rain = 0
KEA1 140517Z 28005KT 03/M03 A2994 RMK A01 T00321033  RH  062%=      5-min Rain = 0
KEA1 140518Z 28005KT 03/M04 A2994 RMK A01 T00311035  RH  062%=      5-min Rain = 0
KEA1 140519Z 30005KT 03/M04 A2995 RMK A01 T00311036  RH  061%=      5-min Rain = 0
KEA1 140520Z 34003KT 03/M04 A2995 RMK A01 T00301037  RH  061%=      5-min Rain = 0
KEA1 140521Z 03003KT 02/M04 A2995 RMK A01 T00241041  RH  062%=      5-min Rain = 0
KEA1 140522Z 34003KT 02/M04 A2995 RMK A01 T00191042  RH  064%=      5-min Rain = 0
KEA1 140523Z 32003KT 02/M04 A2994 RMK A01 T00191038  RH  066%=      5-min Rain = 0
KEA1 140524Z 30004KT 02/M04 A2994 RMK A01 T00221035  RH  066%=      5-min Rain = 0
KEA1 140525Z 29004KT 03/M04 A2994 RMK A01 T00261035  RH  064%=      5-min Rain = 0
KEA1 140526Z 30004KT 03/M04 A2994 RMK A01 T00261036  RH  063%=      5-min Rain = 0
KEA1 140527Z 28003KT 03/M04 A2994 RMK A01 T00261037  RH  063%=      5-min Rain = 0
KEA1 140528Z 27003KT 03/M04 A2994 RMK A01 T00261037  RH  063%=      5-min Rain = 0
KEA1 140529Z 26003KT 03/M04 A2994 RMK A01 T00261037  RH  063%=      5-min Rain = 0
KEA1 140530Z 25004KT 02/M04 A2994 RMK A01 T00241038  RH  063%=      5-min Rain = 0
KEA1 140531Z 25004KT 02/M04 A2994 RMK A01 T00231038  RH  064%=      5-min Rain = 0
KEA1 140532Z 27004KT 02/M04 A2994 RMK A01 T00241037  RH  064%=      5-min Rain = 0
KEA1 140533Z 27003KT 03/M04 A2994 RMK A01 T00261038  RH  063%=      5-min Rain = 0
KEA1 140534Z 28004KT 03/M04 A2994 RMK A01 T00261039  RH  062%=      5-min Rain = 0
KEA1 140535Z 28004KT 03/M04 A2994 RMK A01 T00281038  RH  062%=      5-min Rain = 0
KEA1 140536Z 28005KT 03/M04 A2995 RMK A01 T00301038  RH  061%=      5-min Rain = 0
KEA1 140537Z 27005KT 03/M04 A2995 RMK A01 T00301038  RH  061%=      5-min Rain = 0
KEA1 140538Z 26005KT 03/M04 A2995 RMK A01 T00301039  RH  061%=      5-min Rain = 0
KEA1 140539Z 25006KT 03/M04 A2995 RMK A01 T00291039  RH  061%=      5-min Rain = 0
KEA1 140540Z 26006KT 03/M04 A2995 RMK A01 T00291039  RH  061%=      5-min Rain = 0
KEA1 140541Z 26006KT 03/M04 A2995 RMK A01 T00291040  RH  060%=      5-min Rain = 0
KEA1 140542Z 25006KT 03/M04 A2995 RMK A01 T00281041  RH  060%=      5-min Rain = 0
KEA1 140543Z 26005KT 03/M04 A2995 RMK A01 T00291041  RH  060%=      5-min Rain = 0
KEA1 140544Z 27005KT 03/M04 A2995 RMK A01 T00281041  RH  060%=      5-min Rain = 0
KEA1 140545Z 27006KT 03/M04 A2995 RMK A01 T00281040  RH  061%=      5-min Rain = 0
KEA1 140546Z 27005KT 03/M04 A2995 RMK A01 T00281040  RH  061%=      5-min Rain = 0
KEA1 140547Z 27005KT 03/M04 A2995 RMK A01 T00291039  RH  061%=      5-min Rain = 0
KEA1 140548Z 27005KT 03/M04 A2995 RMK A01 T00301040  RH  060%=      5-min Rain = 0
KEA1 140549Z 26005KT 03/M04 A2995 RMK A01 T00301040  RH  060%=      5-min Rain = 0
KEA1 140550Z 26006KT 03/M04 A2995 RMK A01 T00281041  RH  060%=      5-min Rain = 0
KEA1 140551Z 26006KT 03/M04 A2995 RMK A01 T00271042  RH  061%=      5-min Rain = 0
KEA1 140552Z 26006KT 03/M04 A2995 RMK A01 T00261042  RH  061%=      5-min Rain = 0
KEA1 140553Z 26007KT 03/M04 A2995 RMK A01 T00261042  RH  061%=      5-min Rain = 0
KEA1 140554Z 26007KT 03/M04 A2995 RMK A01 T00261042  RH  060%=      5-min Rain = 0
KEA1 140555Z 26008KT 03/M04 A2995 RMK A01 T00271043  RH  060%=      5-min Rain = 0
KEA1 140556Z 26007KT 03/M04 A2995 RMK A01 T00281043  RH  060%=      5-min Rain = 0
KEA1 140557Z 26007KT 03/M04 A2994 RMK A01 T00291043  RH  059%=      5-min Rain = 0
KEA1 140558Z 26007KT 03/M04 A2994 RMK A01 T00291043  RH  059%=      5-min Rain = 0
KEA1 140559Z 26007KT 03/M04 A2994 RMK A01 T00301043  RH  059%=      5-min Rain = 0

Page generated in 0.064 seconds.